Observation data for Odell on 06/15/2019      Previous  Date  Next       Current Mesonet Observations  Soil Data  Daily Summary Page  Observations in Plain Language
KOD1 150500Z 18017G22KT 27/18 A2976 RMK A01 T02680184  RH  060%=      5-min Rain = 0
KOD1 150501Z 18016KT 27/18 A2977 RMK A01 T02680184  RH  060%=      5-min Rain = 0
KOD1 150502Z 18016KT 27/18 A2977 RMK A01 T02670184  RH  060%=      5-min Rain = 0
KOD1 150503Z 18017KT 27/18 A2976 RMK A01 T02670184  RH  060%=      5-min Rain = 0
KOD1 150504Z 18016KT 27/18 A2976 RMK A01 T02670184  RH  060%=      5-min Rain = 0
KOD1 150505Z 17018KT 27/18 A2976 RMK A01 T02670184  RH  061%=      5-min Rain = 0
KOD1 150506Z 17017KT 27/18 A2976 RMK A01 T02670184  RH  060%=      5-min Rain = 0
KOD1 150507Z 18016KT 27/18 A2976 RMK A01 T02670184  RH  060%=      5-min Rain = 0
KOD1 150508Z 17018G25KT 27/18 A2976 RMK A01 T02670184  RH  060%=      5-min Rain = 0
KOD1 150509Z 17018KT 27/18 A2976 RMK A01 T02670183  RH  060%=      5-min Rain = 0
KOD1 150510Z 17015KT 27/18 A2976 RMK A01 T02670184  RH  060%=      5-min Rain = 0
KOD1 150511Z 17017KT 27/18 A2976 RMK A01 T02670184  RH  060%=      5-min Rain = 0
KOD1 150512Z 17016KT 27/18 A2976 RMK A01 T02670183  RH  060%=      5-min Rain = 0
KOD1 150513Z 18018G23KT 27/18 A2976 RMK A01 T02660183  RH  060%=      5-min Rain = 0
KOD1 150514Z 17019KT 27/18 A2976 RMK A01 T02670183  RH  060%=      5-min Rain = 0
KOD1 150515Z 17019KT 27/18 A2975 RMK A01 T02670183  RH  060%=      5-min Rain = 0
KOD1 150516Z 17020G25KT 27/18 A2975 RMK A01 T02680183  RH  060%=      5-min Rain = 0
KOD1 150517Z 17020KT 27/18 A2975 RMK A01 T02680183  RH  060%=      5-min Rain = 0
KOD1 150518Z 17018KT 27/18 A2975 RMK A01 T02680183  RH  060%=      5-min Rain = 0
KOD1 150519Z 17018KT 27/18 A2975 RMK A01 T02680183  RH  060%=      5-min Rain = 0
KOD1 150520Z 17017KT 27/18 A2975 RMK A01 T02670183  RH  060%=      5-min Rain = 0
KOD1 150521Z 17019KT 27/18 A2974 RMK A01 T02670183  RH  060%=      5-min Rain = 0
KOD1 150522Z 17017G22KT 27/18 A2975 RMK A01 T02680183  RH  060%=      5-min Rain = 0
KOD1 150523Z 17018KT 27/18 A2975 RMK A01 T02670183  RH  060%=      5-min Rain = 0
KOD1 150524Z 17018KT 27/18 A2975 RMK A01 T02670183  RH  060%=      5-min Rain = 0
KOD1 150525Z 17020KT 27/18 A2974 RMK A01 T02670182  RH  060%=      5-min Rain = 0
KOD1 150526Z 17016G21KT 27/18 A2974 RMK A01 T02660182  RH  060%=      5-min Rain = 0
KOD1 150527Z 17019KT 27/18 A2975 RMK A01 T02660182  RH  060%=      5-min Rain = 0
KOD1 150528Z 17017KT 27/18 A2975 RMK A01 T02660182  RH  060%=      5-min Rain = 0
KOD1 150529Z 17019KT 27/18 A2974 RMK A01 T02660182  RH  060%=      5-min Rain = 0
KOD1 150530Z 17019KT 27/18 A2974 RMK A01 T02660182  RH  060%=      5-min Rain = 0
KOD1 150531Z 17018KT 27/18 A2974 RMK A01 T02660182  RH  060%=      5-min Rain = 0
KOD1 150532Z 17018KT 27/18 A2974 RMK A01 T02660182  RH  060%=      5-min Rain = 0
KOD1 150533Z 17017KT 27/18 A2974 RMK A01 T02660182  RH  060%=      5-min Rain = 0
KOD1 150534Z 17017KT 27/18 A2974 RMK A01 T02660182  RH  060%=      5-min Rain = 0
KOD1 150535Z 17018KT 27/18 A2974 RMK A01 T02650182  RH  060%=      5-min Rain = 0
KOD1 150536Z 17018KT 27/18 A2975 RMK A01 T02650182  RH  060%=      5-min Rain = 0
KOD1 150537Z 17019G24KT 27/18 A2975 RMK A01 T02660182  RH  060%=      5-min Rain = 0
KOD1 150538Z 17016G21KT 27/18 A2975 RMK A01 T02660182  RH  060%=      5-min Rain = 0
KOD1 150539Z 17017KT 27/18 A2975 RMK A01 T02650182  RH  060%=      5-min Rain = 0
KOD1 150540Z 17017G22KT 27/18 A2975 RMK A01 T02650182  RH  060%=      5-min Rain = 0
KOD1 150541Z 18016G21KT 27/18 A2975 RMK A01 T02650182  RH  060%=      5-min Rain = 0
KOD1 150542Z 17018KT 27/18 A2975 RMK A01 T02660182  RH  060%=      5-min Rain = 0
KOD1 150543Z 17018KT 27/18 A2975 RMK A01 T02660182  RH  060%=      5-min Rain = 0
KOD1 150544Z 17016KT 27/18 A2975 RMK A01 T02660182  RH  060%=      5-min Rain = 0
KOD1 150545Z 17016KT 27/18 A2975 RMK A01 T02650182  RH  060%=      5-min Rain = 0
KOD1 150546Z 17015KT 27/18 A2975 RMK A01 T02650181  RH  060%=      5-min Rain = 0
KOD1 150547Z 18018KT 26/18 A2975 RMK A01 T02640181  RH  060%=      5-min Rain = 0
KOD1 150548Z 17015KT 26/18 A2975 RMK A01 T02640181  RH  061%=      5-min Rain = 0
KOD1 150549Z 17017KT 26/18 A2975 RMK A01 T02630181  RH  061%=      5-min Rain = 0
KOD1 150550Z 17017KT 26/18 A2974 RMK A01 T02630181  RH  061%=      5-min Rain = 0
KOD1 150551Z 17017KT 26/18 A2974 RMK A01 T02620181  RH  061%=      5-min Rain = 0
KOD1 150552Z 17019KT 26/18 A2974 RMK A01 T02620180  RH  061%=      5-min Rain = 0
KOD1 150553Z 17019KT 26/18 A2974 RMK A01 T02630180  RH  060%=      5-min Rain = 0
KOD1 150554Z 17017KT 26/18 A2974 RMK A01 T02640181  RH  060%=      5-min Rain = 0
KOD1 150555Z 17016KT 26/18 A2974 RMK A01 T02630181  RH  061%=      5-min Rain = 0
KOD1 150556Z 17018KT 26/18 A2974 RMK A01 T02620181  RH  061%=      5-min Rain = 0
KOD1 150557Z 17016KT 26/18 A2974 RMK A01 T02620181  RH  061%=      5-min Rain = 0
KOD1 150558Z 17019KT 26/18 A2973 RMK A01 T02620181  RH  061%=      5-min Rain = 0
KOD1 150559Z 17019G24KT 26/18 A2973 RMK A01 T02630181  RH  061%=      5-min Rain = 0
KOD1 150600Z 17018KT 26/18 A2973 RMK A01 T02630180  RH  061%=      5-min Rain = 0
KOD1 150601Z 17016KT 26/18 A2973 RMK A01 T02620181  RH  061%=      5-min Rain = 0
KOD1 150602Z 17020KT 26/18 A2973 RMK A01 T02610181  RH  061%=      5-min Rain = 0
KOD1 150603Z 17017KT 26/18 A2973 RMK A01 T02620180  RH  061%=      5-min Rain = 0
KOD1 150604Z 17016KT 26/18 A2973 RMK A01 T02620181  RH  061%=      5-min Rain = 0
KOD1 150605Z 17016KT 26/18 A2973 RMK A01 T02610181  RH  061%=      5-min Rain = 0
KOD1 150606Z 18016KT 26/18 A2974 RMK A01 T02610181  RH  062%=      5-min Rain = 0
KOD1 150607Z 17018KT 26/18 A2974 RMK A01 T02610181  RH  062%=      5-min Rain = 0
KOD1 150608Z 18017KT 26/18 A2974 RMK A01 T02610181  RH  061%=      5-min Rain = 0
KOD1 150609Z 18018KT 26/18 A2974 RMK A01 T02610182  RH  062%=      5-min Rain = 0
KOD1 150610Z 17019KT 26/18 A2973 RMK A01 T02610181  RH  062%=      5-min Rain = 0
KOD1 150611Z 17018KT 26/18 A2973 RMK A01 T02610181  RH  061%=      5-min Rain = 0
KOD1 150612Z 17020G25KT 26/18 A2973 RMK A01 T02610181  RH  061%=      5-min Rain = 0
KOD1 150613Z 17022KT 26/18 A2973 RMK A01 T02620181  RH  061%=      5-min Rain = 0
KOD1 150614Z 17019KT 26/18 A2973 RMK A01 T02630182  RH  061%=      5-min Rain = 0
KOD1 150615Z 17018G23KT 26/18 A2972 RMK A01 T02620182  RH  061%=      5-min Rain = 0
KOD1 150616Z 17019KT 26/18 A2972 RMK A01 T02610181  RH  061%=      5-min Rain = 0
KOD1 150617Z 17019KT 26/18 A2972 RMK A01 T02620181  RH  061%=      5-min Rain = 0
KOD1 150618Z 16019G24KT 26/18 A2972 RMK A01 T02620182  RH  061%=      5-min Rain = 0
KOD1 150619Z 17018G23KT 26/18 A2972 RMK A01 T02610182  RH  061%=      5-min Rain = 0
KOD1 150620Z 17021KT 26/18 A2971 RMK A01 T02610181  RH  061%=      5-min Rain = 0
KOD1 150621Z 17018KT 26/18 A2971 RMK A01 T02610182  RH  062%=      5-min Rain = 0
KOD1 150622Z 17020G25KT 26/18 A2971 RMK A01 T02600182  RH  062%=      5-min Rain = 0
KOD1 150623Z 17021KT 26/18 A2971 RMK A01 T02600181  RH  062%=      5-min Rain = 0
KOD1 150624Z 17020KT 26/18 A2971 RMK A01 T02610181  RH  061%=      5-min Rain = 0
KOD1 150625Z 17019KT 26/18 A2971 RMK A01 T02620182  RH  061%=      5-min Rain = 0
KOD1 150626Z 17016G21KT 26/18 A2971 RMK A01 T02620182  RH  061%=      5-min Rain = 0
KOD1 150627Z 17017KT 26/18 A2971 RMK A01 T02630182  RH  061%=      5-min Rain = 0
KOD1 150628Z 17018G23KT 26/18 A2971 RMK A01 T02630182  RH  061%=      5-min Rain = 0
KOD1 150629Z 17017G22KT 26/18 A2971 RMK A01 T02630182  RH  061%=      5-min Rain = 0
KOD1 150630Z 17019KT 26/18 A2971 RMK A01 T02640182  RH  060%=      5-min Rain = 0
KOD1 150631Z 17018KT 27/18 A2971 RMK A01 T02650182  RH  060%=      5-min Rain = 0
KOD1 150632Z 18018G23KT 27/18 A2971 RMK A01 T02650182  RH  060%=      5-min Rain = 0
KOD1 150633Z 18016G22KT 27/18 A2971 RMK A01 T02660182  RH  060%=      5-min Rain = 0
KOD1 150634Z 18019KT 27/18 A2971 RMK A01 T02660182  RH  060%=      5-min Rain = 0
KOD1 150635Z 17018KT 27/18 A2971 RMK A01 T02670183  RH  060%=      5-min Rain = 0
KOD1 150636Z 17016KT 27/18 A2971 RMK A01 T02670183  RH  060%=      5-min Rain = 0
KOD1 150637Z 17019G24KT 27/18 A2971 RMK A01 T02670183  RH  060%=      5-min Rain = 0
KOD1 150638Z 17022KT 27/18 A297 RMK A01 T02680183  RH  060%=      5-min Rain = 0
KOD1 150639Z 17020KT 27/18 A297 RMK A01 T02700183  RH  059%=      5-min Rain = 0
KOD1 150640Z 17021KT 27/18 A297 RMK A01 T02700183  RH  059%=      5-min Rain = 0
KOD1 150641Z 17023KT 27/18 A297 RMK A01 T02710182  RH  058%=      5-min Rain = 0
KOD1 150642Z 16018G23KT 27/18 A297 RMK A01 T02720182  RH  058%=      5-min Rain = 0
KOD1 150643Z 17022G27KT 27/18 A297 RMK A01 T02720182  RH  058%=      5-min Rain = 0
KOD1 150644Z 17022G30KT 27/18 A297 RMK A01 T02730181  RH  057%=      5-min Rain = 0
KOD1 150645Z 17021KT 27/18 A297 RMK A01 T02740182  RH  057%=      5-min Rain = 0
KOD1 150646Z 17018KT 27/18 A297 RMK A01 T02730182  RH  057%=      5-min Rain = 0
KOD1 150647Z 17020G25KT 27/18 A297 RMK A01 T02730182  RH  058%=      5-min Rain = 0
KOD1 150648Z 17018KT 27/18 A297 RMK A01 T02730181  RH  057%=      5-min Rain = 0
KOD1 150649Z 18019G24KT 27/18 A297 RMK A01 T02730182  RH  057%=      5-min Rain = 0
KOD1 150650Z 18019G31KT 27/18 A297 RMK A01 T02730181  RH  057%=      5-min Rain = 0
KOD1 150651Z 18021G31KT 28/18 A297 RMK A01 T02750179  RH  056%=      5-min Rain = 0
KOD1 150652Z 18018G23KT 28/18 A297 RMK A01 T02750180  RH  056%=      5-min Rain = 0
KOD1 150653Z 17019G25KT 28/18 A297 RMK A01 T02750179  RH  056%=      5-min Rain = 0
KOD1 150654Z 18016KT 28/18 A297 RMK A01 T02760178  RH  055%=      5-min Rain = 0
KOD1 150655Z 19016G25KT 28/18 A297 RMK A01 T02770178  RH  055%=      5-min Rain = 0
KOD1 150656Z 19018KT 28/18 A2971 RMK A01 T02780177  RH  054%=      5-min Rain = 0
KOD1 150657Z 21012KT 28/18 A2971 RMK A01 T02790177  RH  054%=      5-min Rain = 0
KOD1 150658Z 22012KT 28/18 A2971 RMK A01 T02780179  RH  055%=      5-min Rain = 0
KOD1 150659Z 21012KT 28/18 A2971 RMK A01 T02770179  RH  055%=      5-min Rain = 0
KOD1 150700Z 21010KT 28/18 A2971 RMK A01 T02760180  RH  056%=      5-min Rain = 0
KOD1 150701Z 21014KT 28/18 A2971 RMK A01 T02750179  RH  056%=      5-min Rain = 0
KOD1 150702Z 21013KT 28/18 A2971 RMK A01 T02760178  RH  055%=      5-min Rain = 0
KOD1 150703Z 21014G19KT 28/18 A2971 RMK A01 T02760179  RH  055%=      5-min Rain = 0
KOD1 150704Z 22019KT 28/18 A2971 RMK A01 T02770176  RH  054%=      5-min Rain = 0
KOD1 150705Z 22021KT 28/18 A2971 RMK A01 T02800175  RH  053%=      5-min Rain = 0
KOD1 150706Z 22017KT 28/18 A2971 RMK A01 T02820176  RH  053%=      5-min Rain = 0
KOD1 150707Z 21018KT 28/18 A297 RMK A01 T02820177  RH  053%=      5-min Rain = 0
KOD1 150708Z 21018KT 28/18 A297 RMK A01 T02820178  RH  053%=      5-min Rain = 0
KOD1 150709Z 21017G24KT 28/18 A2971 RMK A01 T02810177  RH  053%=      5-min Rain = 0
KOD1 150710Z 20018KT 28/18 A297 RMK A01 T02820175  RH  052%=      5-min Rain = 0
KOD1 150711Z 19020G25KT 28/18 A297 RMK A01 T02820175  RH  052%=      5-min Rain = 0
KOD1 150712Z 20015G20KT 28/18 A2971 RMK A01 T02840175  RH  052%=      5-min Rain = 0
KOD1 150713Z 20019G25KT 28/18 A2971 RMK A01 T02840175  RH  052%=      5-min Rain = 0
KOD1 150714Z 20024KT 28/18 A2971 RMK A01 T02840175  RH  051%=      5-min Rain = 0
KOD1 150715Z 20020G25KT 29/17 A2972 RMK A01 T02860172  RH  050%=      5-min Rain = 0
KOD1 150716Z 20016KT 29/17 A2972 RMK A01 T02880171  RH  049%=      5-min Rain = 0
KOD1 150717Z 24013KT 29/17 A2972 RMK A01 T02870174  RH  051%=      5-min Rain = 0
KOD1 150718Z 25013KT 29/17 A2972 RMK A01 T02850171  RH  050%=      5-min Rain = 0
KOD1 150719Z 25011KT 28/17 A2972 RMK A01 T02840172  RH  051%=      5-min Rain = 0
KOD1 150720Z 26010KT 28/17 A2972 RMK A01 T02820174  RH  052%=      5-min Rain = 0
KOD1 150721Z 25010KT 28/17 A2972 RMK A01 T02790174  RH  053%=      5-min Rain = 0
KOD1 150722Z 24011KT 28/17 A2973 RMK A01 T02770173  RH  053%=      5-min Rain = 0
KOD1 150723Z 22010KT 28/17 A2973 RMK A01 T02770173  RH  053%=      5-min Rain = 0
KOD1 150724Z 23008KT 28/17 A2973 RMK A01 T02780168  RH  051%=      5-min Rain = 0
KOD1 150725Z 24010G15KT 28/17 A2973 RMK A01 T02830167  RH  049%=      5-min Rain = 0
KOD1 150726Z 22010KT 29/16 A2973 RMK A01 T02870161  RH  046%=      5-min Rain = 0
KOD1 150727Z 24005KT 29/16 A2973 RMK A01 T02910161  RH  045%=      5-min Rain = 0
KOD1 150728Z 20011KT 29/16 A2973 RMK A01 T02930162  RH  045%=      5-min Rain = 0
KOD1 150729Z 21007KT 29/17 A2973 RMK A01 T02910165  RH  046%=      5-min Rain = 0
KOD1 150730Z 19007G15KT 29/17 A2973 RMK A01 T02910165  RH  046%=      5-min Rain = 0
KOD1 150731Z 20011G20KT 29/17 A2973 RMK A01 T02900168  RH  047%=      5-min Rain = 0
KOD1 150732Z 20014KT 29/17 A2973 RMK A01 T02900169  RH  048%=      5-min Rain = 0
KOD1 150733Z 20013KT 29/17 A2973 RMK A01 T02890171  RH  049%=      5-min Rain = 0
KOD1 150734Z 19012KT 29/17 A2973 RMK A01 T02880171  RH  049%=      5-min Rain = 0
KOD1 150735Z 19014KT 29/17 A2973 RMK A01 T02870171  RH  049%=      5-min Rain = 0
KOD1 150736Z 19015KT 29/17 A2973 RMK A01 T02880171  RH  049%=      5-min Rain = 0
KOD1 150737Z 19016KT 29/17 A2973 RMK A01 T02870172  RH  050%=      5-min Rain = 0
KOD1 150738Z 18016G21KT 29/17 A2973 RMK A01 T02880172  RH  050%=      5-min Rain = 0
KOD1 150739Z 18015KT 29/17 A2973 RMK A01 T02870172  RH  050%=      5-min Rain = 0
KOD1 150740Z 19016KT 29/17 A2972 RMK A01 T02870173  RH  050%=      5-min Rain = 0
KOD1 150741Z 19020G27KT 29/17 A2972 RMK A01 T02870173  RH  050%=      5-min Rain = 0
KOD1 150742Z 19021G27KT 29/17 A2972 RMK A01 T02870174  RH  050%=      5-min Rain = 0
KOD1 150743Z 19017G23KT 29/18 A2972 RMK A01 T02860175  RH  051%=      5-min Rain = 0
KOD1 150744Z 19019G25KT 29/18 A2972 RMK A01 T02860175  RH  051%=      5-min Rain = 0
KOD1 150745Z 19018G24KT 29/18 A2972 RMK A01 T02850176  RH  052%=      5-min Rain = 0
KOD1 150746Z 19016KT 29/18 A2972 RMK A01 T02850176  RH  052%=      5-min Rain = 0
KOD1 150747Z 20017G25KT 28/18 A2972 RMK A01 T02830177  RH  052%=      5-min Rain = 0
KOD1 150748Z 19018G23KT 28/18 A2972 RMK A01 T02830177  RH  053%=      5-min Rain = 0
KOD1 150749Z 20017G24KT 28/18 A2972 RMK A01 T02820177  RH  053%=      5-min Rain = 0
KOD1 150750Z 20018G24KT 28/18 A2972 RMK A01 T02810177  RH  053%=      5-min Rain = 0
KOD1 150751Z 20019KT 28/18 A2972 RMK A01 T02810178  RH  053%=      5-min Rain = 0
KOD1 150752Z 20016KT 28/18 A2972 RMK A01 T02800178  RH  054%=      5-min Rain = 0
KOD1 150753Z 20017G23KT 28/18 A2972 RMK A01 T02800178  RH  054%=      5-min Rain = 0
KOD1 150754Z 20020G26KT 28/18 A2972 RMK A01 T02790178  RH  054%=      5-min Rain = 0
KOD1 150755Z 20021KT 28/18 A2972 RMK A01 T02790177  RH  054%=      5-min Rain = 0
KOD1 150756Z 20021KT 28/18 A2972 RMK A01 T02790177  RH  054%=      5-min Rain = 0
KOD1 150757Z 19020KT 28/18 A2972 RMK A01 T02790177  RH  054%=      5-min Rain = 0
KOD1 150758Z 20019G25KT 28/18 A2972 RMK A01 T02790178  RH  054%=      5-min Rain = 0
KOD1 150759Z 19023G30KT 28/18 A2972 RMK A01 T02790177  RH  054%=      5-min Rain = 0
KOD1 150800Z 19021KT 28/18 A2972 RMK A01 T02800177  RH  053%=      5-min Rain = 0
KOD1 150801Z 20022G27KT 28/18 A2972 RMK A01 T02800177  RH  053%=      5-min Rain = 0
KOD1 150802Z 19023KT 28/18 A2972 RMK A01 T02800176  RH  053%=      5-min Rain = 0
KOD1 150803Z 20024G32KT 28/18 A2972 RMK A01 T02810176  RH  053%=      5-min Rain = 0
KOD1 150804Z 19019G26KT 28/18 A2972 RMK A01 T02810177  RH  053%=      5-min Rain = 0
KOD1 150805Z 19022KT 28/18 A2972 RMK A01 T02800176  RH  053%=      5-min Rain = 0
KOD1 150806Z 19018KT 28/18 A2972 RMK A01 T02800177  RH  054%=      5-min Rain = 0
KOD1 150807Z 19016KT 28/18 A2972 RMK A01 T02780178  RH  054%=      5-min Rain = 0
KOD1 150808Z 19020G26KT 28/18 A2972 RMK A01 T02770177  RH  054%=      5-min Rain = 0
KOD1 150809Z 19018KT 28/18 A2972 RMK A01 T02780177  RH  054%=      5-min Rain = 0
KOD1 150810Z 19021G29KT 28/18 A2972 RMK A01 T02770177  RH  055%=      5-min Rain = 0
KOD1 150811Z 19017G23KT 28/18 A2972 RMK A01 T02770177  RH  054%=      5-min Rain = 0
KOD1 150812Z 18018G24KT 28/18 A2972 RMK A01 T02760178  RH  055%=      5-min Rain = 0
KOD1 150813Z 19019KT 28/18 A2972 RMK A01 T02750177  RH  055%=      5-min Rain = 0
KOD1 150814Z 19018G23KT 28/18 A2972 RMK A01 T02750177  RH  055%=      5-min Rain = 0
KOD1 150815Z 19020KT 28/18 A2972 RMK A01 T02750177  RH  055%=      5-min Rain = 0
KOD1 150816Z 19016KT 28/18 A2972 RMK A01 T02750178  RH  055%=      5-min Rain = 0
KOD1 150817Z 19016KT 27/18 A2972 RMK A01 T02740178  RH  056%=      5-min Rain = 0
KOD1 150818Z 18018G23KT 27/18 A2972 RMK A01 T02730178  RH  056%=      5-min Rain = 0
KOD1 150819Z 19018KT 27/18 A2972 RMK A01 T02720178  RH  056%=      5-min Rain = 0
KOD1 150820Z 18017KT 27/18 A2972 RMK A01 T02720177  RH  056%=      5-min Rain = 0
KOD1 150821Z 19017G23KT 27/18 A2972 RMK A01 T02720178  RH  056%=      5-min Rain = 0
KOD1 150822Z 19017G23KT 27/18 A2972 RMK A01 T02720178  RH  057%=      5-min Rain = 0
KOD1 150823Z 18019KT 27/18 A2972 RMK A01 T02710178  RH  057%=      5-min Rain = 0
KOD1 150824Z 18019G24KT 27/18 A2972 RMK A01 T02710178  RH  057%=      5-min Rain = 0
KOD1 150825Z 19018KT 27/18 A2972 RMK A01 T02710178  RH  057%=      5-min Rain = 0
KOD1 150826Z 18018KT 27/18 A2972 RMK A01 T02710178  RH  057%=      5-min Rain = 0
KOD1 150827Z 18016KT 27/18 A2972 RMK A01 T02700178  RH  057%=      5-min Rain = 0
KOD1 150828Z 19017G22KT 27/18 A2972 RMK A01 T02690178  RH  057%=      5-min Rain = 0
KOD1 150829Z 18017KT 27/18 A2972 RMK A01 T02690178  RH  057%=      5-min Rain = 0
KOD1 150830Z 18015G21KT 27/18 A2972 RMK A01 T02680178  RH  058%=      5-min Rain = 0
KOD1 150831Z 19015KT 27/18 A2972 RMK A01 T02680178  RH  058%=      5-min Rain = 0
KOD1 150832Z 18017G24KT 27/18 A2972 RMK A01 T02670179  RH  058%=      5-min Rain = 0
KOD1 150833Z 18017KT 27/18 A2972 RMK A01 T02670178  RH  058%=      5-min Rain = 0
KOD1 150834Z 19017KT 27/18 A2972 RMK A01 T02680178  RH  058%=      5-min Rain = 0
KOD1 150835Z 19015KT 27/18 A2972 RMK A01 T02670178  RH  058%=      5-min Rain = 0
KOD1 150836Z 18016KT 27/18 A2972 RMK A01 T02670178  RH  058%=      5-min Rain = 0
KOD1 150837Z 19015KT 27/18 A2972 RMK A01 T02660179  RH  059%=      5-min Rain = 0
KOD1 150838Z 19018KT 27/18 A2972 RMK A01 T02660178  RH  058%=      5-min Rain = 0
KOD1 150839Z 19017KT 27/18 A2972 RMK A01 T02660178  RH  058%=      5-min Rain = 0
KOD1 150840Z 19015G20KT 27/18 A2972 RMK A01 T02660179  RH  059%=      5-min Rain = 0
KOD1 150841Z 18017KT 27/18 A2972 RMK A01 T02650178  RH  059%=      5-min Rain = 0
KOD1 150842Z 18021KT 27/18 A2972 RMK A01 T02660178  RH  058%=      5-min Rain = 0
KOD1 150843Z 19017KT 27/18 A2972 RMK A01 T02670178  RH  058%=      5-min Rain = 0
KOD1 150844Z 18020KT 27/18 A2972 RMK A01 T02670179  RH  058%=      5-min Rain = 0
KOD1 150845Z 19017G22KT 27/18 A2972 RMK A01 T02660179  RH  059%=      5-min Rain = 0
KOD1 150846Z 19018KT 27/18 A2972 RMK A01 T02650179  RH  059%=      5-min Rain = 0
KOD1 150847Z 18018KT 27/18 A2972 RMK A01 T02650179  RH  059%=      5-min Rain = 0
KOD1 150848Z 18018KT 27/18 A2972 RMK A01 T02650180  RH  060%=      5-min Rain = 0
KOD1 150849Z 18017G22KT 26/18 A2972 RMK A01 T02640179  RH  060%=      5-min Rain = 0
KOD1 150850Z 19018KT 26/18 A2972 RMK A01 T02630179  RH  060%=      5-min Rain = 0
KOD1 150851Z 19018G23KT 26/18 A2972 RMK A01 T02630179  RH  060%=      5-min Rain = 0
KOD1 150852Z 19019KT 26/18 A2972 RMK A01 T02640179  RH  060%=      5-min Rain = 0
KOD1 150853Z 18019KT 26/18 A2972 RMK A01 T02640179  RH  060%=      5-min Rain = 0
KOD1 150854Z 19016KT 26/18 A2972 RMK A01 T02630179  RH  060%=      5-min Rain = 0
KOD1 150855Z 19019KT 26/18 A2972 RMK A01 T02620179  RH  060%=      5-min Rain = 0
KOD1 150856Z 19019KT 26/18 A2972 RMK A01 T02630179  RH  060%=      5-min Rain = 0
KOD1 150857Z 18018G23KT 26/18 A2972 RMK A01 T02630179  RH  060%=      5-min Rain = 0
KOD1 150858Z 19017KT 26/18 A2972 RMK A01 T02620179  RH  060%=      5-min Rain = 0
KOD1 150859Z 19017G23KT 26/18 A2971 RMK A01 T02620179  RH  060%=      5-min Rain = 0
KOD1 150900Z 19016KT 26/18 A2972 RMK A01 T02620179  RH  060%=      5-min Rain = 0
KOD1 150901Z 19016KT 26/18 A2972 RMK A01 T02610179  RH  060%=      5-min Rain = 0
KOD1 150902Z 18017KT 26/18 A2971 RMK A01 T02600179  RH  061%=      5-min Rain = 0
KOD1 150903Z 19019KT 26/18 A2971 RMK A01 T02600178  RH  061%=      5-min Rain = 0
KOD1 150904Z 18020KT 26/18 A2971 RMK A01 T02610178  RH  060%=      5-min Rain = 0
KOD1 150905Z 19019KT 26/18 A2971 RMK A01 T02610178  RH  060%=      5-min Rain = 0
KOD1 150906Z 18020KT 26/18 A2971 RMK A01 T02610178  RH  060%=      5-min Rain = 0
KOD1 150907Z 19017G22KT 26/18 A2971 RMK A01 T02610178  RH  060%=      5-min Rain = 0
KOD1 150908Z 19018G23KT 26/18 A2972 RMK A01 T02600178  RH  061%=      5-min Rain = 0
KOD1 150909Z 18016KT 26/18 A2972 RMK A01 T02600178  RH  061%=      5-min Rain = 0
KOD1 150910Z 19019KT 26/18 A2972 RMK A01 T02590178  RH  061%=      5-min Rain = 0
KOD1 150911Z 19018KT 26/18 A2972 RMK A01 T02590178  RH  061%=      5-min Rain = 0
KOD1 150912Z 18018KT 26/18 A2972 RMK A01 T02590178  RH  061%=      5-min Rain = 0
KOD1 150913Z 18018KT 26/18 A2972 RMK A01 T02590178  RH  061%=      5-min Rain = 0
KOD1 150914Z 19016KT 26/18 A2972 RMK A01 T02590178  RH  061%=      5-min Rain = 0
KOD1 150915Z 18018KT 26/18 A2972 RMK A01 T02580179  RH  062%=      5-min Rain = 0
KOD1 150916Z 18017KT 26/18 A2972 RMK A01 T02570178  RH  062%=      5-min Rain = 0
KOD1 150917Z 18018KT 26/18 A2972 RMK A01 T02570178  RH  062%=      5-min Rain = 0
KOD1 150918Z 18018KT 26/18 A2972 RMK A01 T02570178  RH  062%=      5-min Rain = 0
KOD1 150919Z 19015KT 26/18 A2971 RMK A01 T02570179  RH  062%=      5-min Rain = 0
KOD1 150920Z 18016KT 26/18 A2971 RMK A01 T02560179  RH  062%=      5-min Rain = 0
KOD1 150921Z 18020KT 26/18 A2971 RMK A01 T02560179  RH  062%=      5-min Rain = 0
KOD1 150922Z 18019G24KT 26/18 A2971 RMK A01 T02560179  RH  062%=      5-min Rain = 0
KOD1 150923Z 19019G24KT 26/18 A2971 RMK A01 T02570179  RH  062%=      5-min Rain = 0
KOD1 150924Z 19020KT 26/18 A2971 RMK A01 T02570178  RH  062%=      5-min Rain = 0
KOD1 150925Z 18019KT 26/18 A2971 RMK A01 T02570179  RH  062%=      5-min Rain = 0
KOD1 150926Z 19016G22KT 26/18 A2971 RMK A01 T02560179  RH  062%=      5-min Rain = 0
KOD1 150927Z 18019KT 26/18 A2971 RMK A01 T02550179  RH  063%=      5-min Rain = 0
KOD1 150928Z 18017KT 25/18 A2971 RMK A01 T02540179  RH  063%=      5-min Rain = 0
KOD1 150929Z 19018G23KT 26/18 A2971 RMK A01 T02550179  RH  063%=      5-min Rain = 0
KOD1 150930Z 18016KT 26/18 A2971 RMK A01 T02550179  RH  063%=      5-min Rain = 0
KOD1 150931Z 19017KT 25/18 A2971 RMK A01 T02540179  RH  063%=      5-min Rain = 0
KOD1 150932Z 18017KT 25/18 A2971 RMK A01 T02540179  RH  063%=      5-min Rain = 0
KOD1 150933Z 19018KT 25/18 A2971 RMK A01 T02540180  RH  064%=      5-min Rain = 0
KOD1 150934Z 18020G27KT 25/18 A2971 RMK A01 T02540179  RH  063%=      5-min Rain = 0
KOD1 150935Z 19019KT 25/18 A2971 RMK A01 T02540179  RH  063%=      5-min Rain = 0
KOD1 150936Z 18018KT 25/18 A2971 RMK A01 T02540179  RH  063%=      5-min Rain = 0
KOD1 150937Z 19016KT 25/18 A2971 RMK A01 T02540180  RH  063%=      5-min Rain = 0
KOD1 150938Z 19018KT 25/18 A2971 RMK A01 T02530180  RH  064%=      5-min Rain = 0
KOD1 150939Z 19018G24KT 25/18 A2971 RMK A01 T02520180  RH  064%=      5-min Rain = 0
KOD1 150940Z 18019KT 25/18 A2971 RMK A01 T02520179  RH  064%=      5-min Rain = 0
KOD1 150941Z 18016KT 25/18 A2971 RMK A01 T02530180  RH  064%=      5-min Rain = 0
KOD1 150942Z 18018KT 25/18 A2971 RMK A01 T02520180  RH  064%=      5-min Rain = 0
KOD1 150943Z 18018KT 25/18 A2971 RMK A01 T02520180  RH  064%=      5-min Rain = 0
KOD1 150944Z 19019KT 25/18 A2971 RMK A01 T02520180  RH  064%=      5-min Rain = 0
KOD1 150945Z 18016KT 25/18 A2971 RMK A01 T02520180  RH  064%=      5-min Rain = 0
KOD1 150946Z 18018KT 25/18 A2971 RMK A01 T02510180  RH  065%=      5-min Rain = 0
KOD1 150947Z 18018KT 25/18 A2971 RMK A01 T02510180  RH  065%=      5-min Rain = 0
KOD1 150948Z 18020KT 25/18 A2971 RMK A01 T02510180  RH  064%=      5-min Rain = 0
KOD1 150949Z 18018G23KT 25/18 A2971 RMK A01 T02510180  RH  065%=      5-min Rain = 0
KOD1 150950Z 18020KT 25/18 A2971 RMK A01 T02510180  RH  065%=      5-min Rain = 0
KOD1 150951Z 18019KT 25/18 A2971 RMK A01 T02520180  RH  064%=      5-min Rain = 0
KOD1 150952Z 18020G26KT 25/18 A2971 RMK A01 T02510180  RH  064%=      5-min Rain = 0
KOD1 150953Z 18016G23KT 25/18 A2971 RMK A01 T02510180  RH  065%=      5-min Rain = 0
KOD1 150954Z 18019KT 25/18 A2971 RMK A01 T02500180  RH  065%=      5-min Rain = 0
KOD1 150955Z 18019KT 25/18 A2971 RMK A01 T02500180  RH  065%=      5-min Rain = 0
KOD1 150956Z 18017KT 25/18 A2971 RMK A01 T02500180  RH  065%=      5-min Rain = 0
KOD1 150957Z 18016KT 25/18 A2971 RMK A01 T02490181  RH  066%=      5-min Rain = 0
KOD1 150958Z 18018KT 25/18 A2971 RMK A01 T02490181  RH  066%=      5-min Rain = 0
KOD1 150959Z 18018KT 25/18 A2971 RMK A01 T02490180  RH  066%=      5-min Rain = 0
KOD1 151000Z 18019G24KT 25/18 A2971 RMK A01 T02490181  RH  066%=      5-min Rain = 0
KOD1 151001Z 18017KT 25/18 A2971 RMK A01 T02480181  RH  066%=      5-min Rain = 0
KOD1 151002Z 18018G24KT 25/18 A2971 RMK A01 T02470180  RH  066%=      5-min Rain = 0
KOD1 151003Z 18018KT 25/18 A2971 RMK A01 T02470181  RH  066%=      5-min Rain = 0
KOD1 151004Z 18017KT 25/18 A2971 RMK A01 T02470181  RH  066%=      5-min Rain = 0
KOD1 151005Z 18018KT 25/18 A2971 RMK A01 T02470180  RH  066%=      5-min Rain = 0
KOD1 151006Z 18018KT 25/18 A2971 RMK A01 T02470181  RH  067%=      5-min Rain = 0
KOD1 151007Z 18016G22KT 25/18 A2971 RMK A01 T02460181  RH  067%=      5-min Rain = 0
KOD1 151008Z 18017G23KT 25/18 A2971 RMK A01 T02460181  RH  067%=      5-min Rain = 0
KOD1 151009Z 18017G22KT 25/18 A2971 RMK A01 T02460181  RH  067%=      5-min Rain = 0
KOD1 151010Z 18017KT 25/18 A2971 RMK A01 T02460181  RH  067%=      5-min Rain = 0
KOD1 151011Z 18015KT 25/18 A2971 RMK A01 T02450181  RH  067%=      5-min Rain = 0
KOD1 151012Z 18017KT 25/18 A2971 RMK A01 T02450181  RH  068%=      5-min Rain = 0
KOD1 151013Z 18016KT 25/18 A2971 RMK A01 T02450181  RH  068%=      5-min Rain = 0
KOD1 151014Z 18016KT 25/18 A2971 RMK A01 T02450182  RH  068%=      5-min Rain = 0
KOD1 151015Z 18017KT 24/18 A2971 RMK A01 T02440181  RH  068%=      5-min Rain = 0
KOD1 151016Z 18019KT 25/18 A2971 RMK A01 T02450181  RH  067%=      5-min Rain = 0
KOD1 151017Z 18015KT 25/18 A2971 RMK A01 T02450181  RH  067%=      5-min Rain = 0
KOD1 151018Z 17015KT 25/18 A2972 RMK A01 T02450182  RH  068%=      5-min Rain = 0
KOD1 151019Z 18015KT 25/18 A2971 RMK A01 T02450182  RH  068%=      5-min Rain = 0
KOD1 151020Z 18016G21KT 24/18 A2972 RMK A01 T02440182  RH  068%=      5-min Rain = 0
KOD1 151021Z 18017KT 24/18 A2972 RMK A01 T02440182  RH  068%=      5-min Rain = 0
KOD1 151022Z 18016KT 24/18 A2972 RMK A01 T02440182  RH  068%=      5-min Rain = 0
KOD1 151023Z 18019KT 24/18 A2972 RMK A01 T02440182  RH  068%=      5-min Rain = 0
KOD1 151024Z 17015KT 25/18 A2972 RMK A01 T02450182  RH  068%=      5-min Rain = 0
KOD1 151025Z 18018KT 25/18 A2972 RMK A01 T02450182  RH  068%=      5-min Rain = 0
KOD1 151026Z 18015G20KT 25/18 A2972 RMK A01 T02450182  RH  068%=      5-min Rain = 0
KOD1 151027Z 17017KT 25/18 A2972 RMK A01 T02450182  RH  068%=      5-min Rain = 0
KOD1 151028Z 18016KT 25/18 A2972 RMK A01 T02450182  RH  068%=      5-min Rain = 0
KOD1 151029Z 18016KT 24/18 A2972 RMK A01 T02440182  RH  069%=      5-min Rain = 0
KOD1 151030Z 18015KT 24/18 A2972 RMK A01 T02440183  RH  069%=      5-min Rain = 0
KOD1 151031Z 18015KT 24/18 A2972 RMK A01 T02430183  RH  069%=      5-min Rain = 0
KOD1 151032Z 18014KT 24/18 A2972 RMK A01 T02430183  RH  069%=      5-min Rain = 0
KOD1 151033Z 18014KT 24/18 A2972 RMK A01 T02430183  RH  069%=      5-min Rain = 0
KOD1 151034Z 18016KT 24/18 A2972 RMK A01 T02420183  RH  069%=      5-min Rain = 0
KOD1 151035Z 18016KT 24/18 A2972 RMK A01 T02430182  RH  069%=      5-min Rain = 0
KOD1 151036Z 18015KT 24/18 A2972 RMK A01 T02440183  RH  069%=      5-min Rain = 0
KOD1 151037Z 18013KT 24/18 A2972 RMK A01 T02430183  RH  069%=      5-min Rain = 0
KOD1 151038Z 18013KT 24/18 A2972 RMK A01 T02420183  RH  070%=      5-min Rain = 0
KOD1 151039Z 18014KT 24/18 A2972 RMK A01 T02420183  RH  070%=      5-min Rain = 0
KOD1 151040Z 18016G21KT 24/18 A2972 RMK A01 T02410183  RH  070%=      5-min Rain = 0
KOD1 151041Z 18016KT 24/18 A2972 RMK A01 T02420183  RH  069%=      5-min Rain = 0
KOD1 151042Z 18015KT 24/18 A2972 RMK A01 T02430183  RH  069%=      5-min Rain = 0
KOD1 151043Z 18014KT 24/18 A2972 RMK A01 T02420183  RH  070%=      5-min Rain = 0
KOD1 151044Z 18015KT 24/18 A2972 RMK A01 T02410183  RH  070%=      5-min Rain = 0
KOD1 151045Z 18013KT 24/18 A2972 RMK A01 T02410184  RH  070%=      5-min Rain = 0
KOD1 151046Z 18014KT 24/18 A2972 RMK A01 T02400184  RH  071%=      5-min Rain = 0
KOD1 151047Z 18015KT 24/18 A2972 RMK A01 T02400184  RH  071%=      5-min Rain = 0
KOD1 151048Z 18015KT 24/18 A2972 RMK A01 T02400184  RH  071%=      5-min Rain = 0
KOD1 151049Z 18016G21KT 24/18 A2972 RMK A01 T02400184  RH  071%=      5-min Rain = 0
KOD1 151050Z 18016KT 24/18 A2972 RMK A01 T02400183  RH  070%=      5-min Rain = 0
KOD1 151051Z 18016KT 24/18 A2972 RMK A01 T02400184  RH  071%=      5-min Rain = 0
KOD1 151052Z 18016KT 24/18 A2972 RMK A01 T02400184  RH  071%=      5-min Rain = 0
KOD1 151053Z 18015KT 24/18 A2972 RMK A01 T02400184  RH  071%=      5-min Rain = 0
KOD1 151054Z 18013KT 24/18 A2972 RMK A01 T02390184  RH  071%=      5-min Rain = 0
KOD1 151055Z 18015KT 24/18 A2972 RMK A01 T02390184  RH  071%=      5-min Rain = 0
KOD1 151056Z 18015KT 24/18 A2972 RMK A01 T02390184  RH  071%=      5-min Rain = 0
KOD1 151057Z 18012G18KT 24/18 A2972 RMK A01 T02390184  RH  071%=      5-min Rain = 0
KOD1 151058Z 18016KT 24/18 A2972 RMK A01 T02380184  RH  072%=      5-min Rain = 0
KOD1 151059Z 18014G19KT 24/18 A2972 RMK A01 T02390184  RH  071%=      5-min Rain = 0
KOD1 151100Z 18013KT 24/18 A2972 RMK A01 T02380184  RH  072%=      5-min Rain = 0
KOD1 151101Z 18017KT 24/18 A2972 RMK A01 T02380184  RH  072%=      5-min Rain = 0
KOD1 151102Z 18017KT 24/18 A2972 RMK A01 T02380184  RH  072%=      5-min Rain = 0
KOD1 151103Z 17014KT 24/18 A2973 RMK A01 T02380184  RH  072%=      5-min Rain = 0
KOD1 151104Z 18015KT 24/18 A2973 RMK A01 T02380184  RH  072%=      5-min Rain = 0
KOD1 151105Z 18014KT 24/18 A2972 RMK A01 T02370184  RH  072%=      5-min Rain = 0
KOD1 151106Z 18015KT 24/18 A2973 RMK A01 T02370184  RH  072%=      5-min Rain = 0
KOD1 151107Z 18015KT 24/18 A2972 RMK A01 T02370184  RH  072%=      5-min Rain = 0
KOD1 151108Z 18015KT 24/18 A2972 RMK A01 T02370184  RH  072%=      5-min Rain = 0
KOD1 151109Z 18013KT 24/19 A2973 RMK A01 T02370185  RH  072%=      5-min Rain = 0
KOD1 151110Z 18014KT 24/19 A2972 RMK A01 T02360185  RH  073%=      5-min Rain = 0
KOD1 151111Z 17016KT 24/18 A2972 RMK A01 T02360184  RH  073%=      5-min Rain = 0
KOD1 151112Z 17016KT 24/18 A2972 RMK A01 T02370184  RH  072%=      5-min Rain = 0
KOD1 151113Z 17015KT 24/19 A2972 RMK A01 T02370185  RH  073%=      5-min Rain = 0
KOD1 151114Z 17014G19KT 24/19 A2972 RMK A01 T02360185  RH  073%=      5-min Rain = 0
KOD1 151115Z 18013G18KT 24/19 A2972 RMK A01 T02360185  RH  073%=      5-min Rain = 0
KOD1 151116Z 18016KT 24/19 A2973 RMK A01 T02350185  RH  073%=      5-min Rain = 0
KOD1 151117Z 18015G20KT 24/18 A2973 RMK A01 T02350184  RH  073%=      5-min Rain = 0
KOD1 151118Z 18014KT 24/19 A2973 RMK A01 T02350185  RH  073%=      5-min Rain = 0
KOD1 151119Z 18016KT 24/19 A2973 RMK A01 T02350185  RH  073%=      5-min Rain = 0
KOD1 151120Z 18017KT 24/19 A2973 RMK A01 T02350185  RH  073%=      5-min Rain = 0
KOD1 151121Z 17013KT 24/19 A2973 RMK A01 T02350185  RH  073%=      5-min Rain = 0
KOD1 151122Z 17014KT 23/19 A2973 RMK A01 T02340185  RH  074%=      5-min Rain = 0
KOD1 151123Z 17013KT 23/19 A2973 RMK A01 T02340185  RH  074%=      5-min Rain = 0
KOD1 151124Z 18014KT 23/19 A2973 RMK A01 T02330185  RH  074%=      5-min Rain = 0
KOD1 151125Z 17014KT 23/19 A2973 RMK A01 T02330185  RH  074%=      5-min Rain = 0
KOD1 151126Z 17014KT 23/19 A2973 RMK A01 T02340185  RH  074%=      5-min Rain = 0
KOD1 151127Z 17014KT 23/19 A2973 RMK A01 T02340186  RH  074%=      5-min Rain = 0
KOD1 151128Z 17013KT 23/19 A2973 RMK A01 T02330186  RH  075%=      5-min Rain = 0
KOD1 151129Z 17013KT 23/19 A2973 RMK A01 T02330186  RH  075%=      5-min Rain = 0
KOD1 151130Z 17013KT 23/19 A2973 RMK A01 T02330186  RH  075%=      5-min Rain = 0
KOD1 151131Z 17014KT 23/19 A2973 RMK A01 T02320186  RH  075%=      5-min Rain = 0
KOD1 151132Z 17011G16KT 23/19 A2973 RMK A01 T02320186  RH  075%=      5-min Rain = 0
KOD1 151133Z 17013KT 23/19 A2973 RMK A01 T02320186  RH  075%=      5-min Rain = 0
KOD1 151134Z 17014KT 23/19 A2973 RMK A01 T02320186  RH  075%=      5-min Rain = 0
KOD1 151135Z 16014KT 23/19 A2973 RMK A01 T02320186  RH  075%=      5-min Rain = 0
KOD1 151136Z 17013KT 23/19 A2973 RMK A01 T02320186  RH  075%=      5-min Rain = 0
KOD1 151137Z 17013KT 23/19 A2974 RMK A01 T02320186  RH  075%=      5-min Rain = 0
KOD1 151138Z 17014KT 23/19 A2974 RMK A01 T02310186  RH  076%=      5-min Rain = 0
KOD1 151139Z 17012KT 23/19 A2974 RMK A01 T02310186  RH  076%=      5-min Rain = 0
KOD1 151140Z 17013KT 23/19 A2974 RMK A01 T02310186  RH  076%=      5-min Rain = 0
KOD1 151141Z 17012KT 23/19 A2974 RMK A01 T02300186  RH  076%=      5-min Rain = 0
KOD1 151142Z 16014KT 23/19 A2974 RMK A01 T02300187  RH  076%=      5-min Rain = 0
KOD1 151143Z 16012KT 23/19 A2974 RMK A01 T02300186  RH  076%=      5-min Rain = 0
KOD1 151144Z 16012KT 23/19 A2974 RMK A01 T02300187  RH  076%=      5-min Rain = 0
KOD1 151145Z 17012KT 23/19 A2974 RMK A01 T02300187  RH  077%=      5-min Rain = 0
KOD1 151146Z 16012KT 23/19 A2974 RMK A01 T02300187  RH  077%=      5-min Rain = 0
KOD1 151147Z 16012KT 23/19 A2974 RMK A01 T02300187  RH  077%=      5-min Rain = 0
KOD1 151148Z 16011KT 23/19 A2974 RMK A01 T02300187  RH  077%=      5-min Rain = 0
KOD1 151149Z 16011KT 23/19 A2974 RMK A01 T02300187  RH  077%=      5-min Rain = 0
KOD1 151150Z 15011KT 23/19 A2975 RMK A01 T02300187  RH  077%=      5-min Rain = 0
KOD1 151151Z 15009KT 23/19 A2975 RMK A01 T02300187  RH  077%=      5-min Rain = 0
KOD1 151152Z 15009KT 23/19 A2975 RMK A01 T02300187  RH  077%=      5-min Rain = 0
KOD1 151153Z 14008KT 23/19 A2975 RMK A01 T02300188  RH  077%=      5-min Rain = 0
KOD1 151154Z 14009KT 23/19 A2975 RMK A01 T02300188  RH  077%=      5-min Rain = 0
KOD1 151155Z 14009KT 23/19 A2976 RMK A01 T02300187  RH  077%=      5-min Rain = 0
KOD1 151156Z 13009KT 23/19 A2976 RMK A01 T02300188  RH  077%=      5-min Rain = 0
KOD1 151157Z 12008KT 23/19 A2976 RMK A01 T02300188  RH  077%=      5-min Rain = 0
KOD1 151158Z 12008KT 23/19 A2976 RMK A01 T02300188  RH  077%=      5-min Rain = 0
KOD1 151159Z 11009KT 23/19 A2977 RMK A01 T02290188  RH  077%=      5-min Rain = 0
KOD1 151200Z 10010KT 23/19 A2977 RMK A01 T02300188  RH  077%=      5-min Rain = 0
KOD1 151201Z 09009KT 23/19 A2977 RMK A01 T02300188  RH  077%=      5-min Rain = 0
KOD1 151202Z 09006KT 23/19 A2977 RMK A01 T02300188  RH  077%=      5-min Rain = 0
KOD1 151203Z 09007KT 23/19 A2977 RMK A01 T02290189  RH  078%=      5-min Rain = 0
KOD1 151204Z 08008KT 23/19 A2978 RMK A01 T02290189  RH  078%=      5-min Rain = 0
KOD1 151205Z 08008KT 23/19 A2978 RMK A01 T02290189  RH  078%=      5-min Rain = 0
KOD1 151206Z 08010KT 23/19 A2978 RMK A01 T02290189  RH  078%=      5-min Rain = 0
KOD1 151207Z 08009KT 23/19 A2978 RMK A01 T02290188  RH  078%=      5-min Rain = 0
KOD1 151208Z 09008KT 23/19 A2978 RMK A01 T02290188  RH  078%=      5-min Rain = 0
KOD1 151209Z 10010KT 23/19 A2978 RMK A01 T02290189  RH  078%=      5-min Rain = 0
KOD1 151210Z 09010KT 23/19 A2978 RMK A01 T02300189  RH  078%=      5-min Rain = 0
KOD1 151211Z 10009KT 23/19 A2978 RMK A01 T02300189  RH  078%=      5-min Rain = 0
KOD1 151212Z 10010KT 23/19 A2978 RMK A01 T02300189  RH  078%=      5-min Rain = 0
KOD1 151213Z 11010KT 23/19 A2977 RMK A01 T02310189  RH  077%=      5-min Rain = 0
KOD1 151214Z 12009KT 23/19 A2978 RMK A01 T02320189  RH  077%=      5-min Rain = 0
KOD1 151215Z 13009KT 23/19 A2977 RMK A01 T02320189  RH  077%=      5-min Rain = 0
KOD1 151216Z 14010KT 23/19 A2977 RMK A01 T02320189  RH  077%=      5-min Rain = 0
KOD1 151217Z 13011KT 23/19 A2977 RMK A01 T02320190  RH  077%=      5-min Rain = 0
KOD1 151218Z 14009KT 23/19 A2977 RMK A01 T02320189  RH  077%=      5-min Rain = 0
KOD1 151219Z 15011KT 23/19 A2977 RMK A01 T02330190  RH  077%=      5-min Rain = 0
KOD1 151220Z 15012KT 23/19 A2977 RMK A01 T02330190  RH  077%=      5-min Rain = 0
KOD1 151221Z 15014KT 23/19 A2977 RMK A01 T02330189  RH  077%=      5-min Rain = 0
KOD1 151222Z 16012KT 23/19 A2977 RMK A01 T02330190  RH  077%=      5-min Rain = 0
KOD1 151223Z 16012G19KT 23/19 A2977 RMK A01 T02320191  RH  077%=      5-min Rain = 0
KOD1 151224Z 15014KT 23/19 A2977 RMK A01 T02320190  RH  077%=      5-min Rain = 0
KOD1 151225Z 16012KT 23/19 A2977 RMK A01 T02320191  RH  077%=      5-min Rain = 0
KOD1 151226Z 15011KT 23/19 A2977 RMK A01 T02320191  RH  077%=      5-min Rain = 0
KOD1 151227Z 16011KT 23/19 A2977 RMK A01 T02320191  RH  078%=      5-min Rain = 0
KOD1 151228Z 16009G14KT 23/19 A2978 RMK A01 T02320191  RH  078%=      5-min Rain = 0
KOD1 151229Z 16009KT 23/19 A2978 RMK A01 T02320191  RH  078%=      5-min Rain = 0
KOD1 151230Z 15008KT 23/19 A2978 RMK A01 T02320191  RH  078%=      5-min Rain = 0
KOD1 151231Z 16007KT 23/19 A2979 RMK A01 T02320191  RH  078%=      5-min Rain = 0
KOD1 151232Z 16007KT 23/19 A2979 RMK A01 T02330192  RH  078%=      5-min Rain = 0
KOD1 151233Z 16007KT 23/19 A2979 RMK A01 T02330192  RH  078%=      5-min Rain = 0
KOD1 151234Z 15007KT 23/19 A2979 RMK A01 T02340192  RH  077%=      5-min Rain = 0
KOD1 151235Z 14006KT 23/19 A298 RMK A01 T02340192  RH  077%=      5-min Rain = 0
KOD1 151236Z 13005KT 24/19 A298 RMK A01 T02350193  RH  077%=      5-min Rain = 0
KOD1 151237Z 12006KT 24/19 A298 RMK A01 T02360192  RH  076%=      5-min Rain = 0
KOD1 151238Z 11005KT 24/19 A298 RMK A01 T02370193  RH  076%=      5-min Rain = 0
KOD1 151239Z 13006KT 24/19 A298 RMK A01 T02380192  RH  076%=      5-min Rain = 0
KOD1 151240Z 11005KT 24/19 A298 RMK A01 T02390192  RH  075%=      5-min Rain = 0
KOD1 151241Z 11005KT 24/19 A2981 RMK A01 T02400193  RH  075%=      5-min Rain = 0
KOD1 151242Z 10005KT 24/19 A2981 RMK A01 T02410193  RH  075%=      5-min Rain = 0
KOD1 151243Z 09005KT 24/19 A2981 RMK A01 T02410193  RH  074%=      5-min Rain = 0
KOD1 151244Z 09005KT 24/19 A2981 RMK A01 T02420193  RH  074%=      5-min Rain = 0
KOD1 151245Z 09005KT 24/20 A2981 RMK A01 T02420195  RH  075%=      5-min Rain = 0
KOD1 151246Z 11006KT 24/19 A2981 RMK A01 T02430194  RH  074%=      5-min Rain = 0
KOD1 151247Z 11006KT 24/19 A2981 RMK A01 T02430194  RH  074%=      5-min Rain = 0
KOD1 151248Z 11006KT 24/19 A2981 RMK A01 T02430194  RH  074%=      5-min Rain = 0
KOD1 151249Z 13007KT 24/19 A2981 RMK A01 T02430194  RH  074%=      5-min Rain = 0
KOD1 151250Z 13007KT 24/19 A298 RMK A01 T02430194  RH  074%=      5-min Rain = 0
KOD1 151251Z 12007KT 24/20 A298 RMK A01 T02440196  RH  075%=      5-min Rain = 0
KOD1 151252Z 14007KT 25/20 A298 RMK A01 T02450196  RH  074%=      5-min Rain = 0
KOD1 151253Z 13008KT 25/20 A298 RMK A01 T02450195  RH  074%=      5-min Rain = 0
KOD1 151254Z 14006KT 24/20 A2981 RMK A01 T02440195  RH  074%=      5-min Rain = 0
KOD1 151255Z 15008KT 25/20 A2981 RMK A01 T02450196  RH  074%=      5-min Rain = 0
KOD1 151256Z 16007KT 25/20 A2981 RMK A01 T02450195  RH  074%=      5-min Rain = 0
KOD1 151257Z 15006KT 25/20 A2981 RMK A01 T02450197  RH  074%=      5-min Rain = 0
KOD1 151258Z 16008KT 25/20 A2981 RMK A01 T02450196  RH  074%=      5-min Rain = 0
KOD1 151259Z 16009KT 25/20 A298 RMK A01 T02450197  RH  074%=      5-min Rain = 0
KOD1 151300Z 16011KT 25/20 A298 RMK A01 T02450196  RH  074%=      5-min Rain = 0
KOD1 151301Z 15012KT 25/20 A298 RMK A01 T02450196  RH  074%=      5-min Rain = 0
KOD1 151302Z 15010KT 25/20 A2979 RMK A01 T02450196  RH  074%=      5-min Rain = 0
KOD1 151303Z 16011KT 25/20 A2979 RMK A01 T02450197  RH  075%=      5-min Rain = 0
KOD1 151304Z 16011KT 25/20 A2979 RMK A01 T02460198  RH  075%=      5-min Rain = 0
KOD1 151305Z 16011KT 25/20 A2979 RMK A01 T02450197  RH  075%=      5-min Rain = 0
KOD1 151306Z 15013KT 25/20 A2979 RMK A01 T02450197  RH  074%=      5-min Rain = 0
KOD1 151307Z 15014KT 25/20 A2979 RMK A01 T02460197  RH  074%=      5-min Rain = 0
KOD1 151308Z 15014G19KT 25/20 A2979 RMK A01 T02460196  RH  074%=      5-min Rain = 0
KOD1 151309Z 15012KT 25/20 A298 RMK A01 T02460198  RH  074%=      5-min Rain = 0
KOD1 151310Z 16013KT 25/20 A298 RMK A01 T02460196  RH  074%=      5-min Rain = 0
KOD1 151311Z 15010KT 25/20 A298 RMK A01 T02460197  RH  074%=      5-min Rain = 0
KOD1 151312Z 15011KT 25/20 A298 RMK A01 T02460197  RH  074%=      5-min Rain = 0
KOD1 151313Z 15009KT 25/20 A298 RMK A01 T02470197  RH  074%=      5-min Rain = 0
KOD1 151314Z 14007KT 25/20 A298 RMK A01 T02480199  RH  074%=      5-min Rain = 0
KOD1 151315Z 14012KT 25/20 A298 RMK A01 T02490198  RH  073%=      5-min Rain = 0
KOD1 151316Z 14013KT 25/20 A298 RMK A01 T02490197  RH  073%=      5-min Rain = 0
KOD1 151317Z 14011KT 25/20 A298 RMK A01 T02490197  RH  073%=      5-min Rain = 0
KOD1 151318Z 15012KT 25/20 A298 RMK A01 T02490197  RH  073%=      5-min Rain = 0
KOD1 151319Z 14012KT 25/20 A298 RMK A01 T02490197  RH  073%=      5-min Rain = 0
KOD1 151320Z 15010KT 25/20 A298 RMK A01 T02490197  RH  073%=      5-min Rain = 0
KOD1 151321Z 15009KT 25/20 A298 RMK A01 T02490198  RH  073%=      5-min Rain = 0
KOD1 151322Z 15008KT 25/20 A298 RMK A01 T02500198  RH  073%=      5-min Rain = 0
KOD1 151323Z 15009G15KT 25/20 A298 RMK A01 T02500199  RH  073%=      5-min Rain = 0
KOD1 151324Z 15010KT 25/20 A298 RMK A01 T02510198  RH  073%=      5-min Rain = 0
KOD1 151325Z 14010KT 25/20 A298 RMK A01 T02510199  RH  073%=      5-min Rain = 0
KOD1 151326Z 14009KT 25/20 A298 RMK A01 T02510198  RH  072%=      5-min Rain = 0
KOD1 151327Z 13013KT 25/20 A298 RMK A01 T02510198  RH  072%=      5-min Rain = 0
KOD1 151328Z 14012KT 25/20 A298 RMK A01 T02510198  RH  072%=      5-min Rain = 0
KOD1 151329Z 13012KT 25/20 A298 RMK A01 T02520198  RH  072%=      5-min Rain = 0
KOD1 151330Z 13011KT 25/20 A298 RMK A01 T02530196  RH  071%=      5-min Rain = 0
KOD1 151331Z 14011KT 25/20 A298 RMK A01 T02520197  RH  071%=      5-min Rain = 0
KOD1 151332Z 14012KT 25/20 A298 RMK A01 T02530199  RH  072%=      5-min Rain = 0
KOD1 151333Z 14012KT 25/20 A298 RMK A01 T02530199  RH  072%=      5-min Rain = 0
KOD1 151334Z 16012KT 25/20 A298 RMK A01 T02530198  RH  072%=      5-min Rain = 0
KOD1 151335Z 15013KT 25/20 A298 RMK A01 T02540199  RH  072%=      5-min Rain = 0
KOD1 151336Z 15013KT 25/20 A2979 RMK A01 T02530198  RH  072%=      5-min Rain = 0
KOD1 151337Z 14013KT 25/20 A2979 RMK A01 T02530199  RH  072%=      5-min Rain = 0
KOD1 151338Z 15012KT 25/20 A2979 RMK A01 T02540199  RH  072%=      5-min Rain = 0
KOD1 151339Z 14013KT 25/20 A2979 RMK A01 T02540199  RH  072%=      5-min Rain = 0
KOD1 151340Z 16013KT 25/20 A298 RMK A01 T02530199  RH  072%=      5-min Rain = 0
KOD1 151341Z 15011KT 25/20 A2979 RMK A01 T02530200  RH  072%=      5-min Rain = 0
KOD1 151342Z 15014KT 25/20 A2979 RMK A01 T02530199  RH  072%=      5-min Rain = 0
KOD1 151343Z 15012KT 25/20 A2979 RMK A01 T02540200  RH  072%=      5-min Rain = 0
KOD1 151344Z 14013KT 26/20 A2979 RMK A01 T02550200  RH  072%=      5-min Rain = 0
KOD1 151345Z 15015KT 26/20 A2979 RMK A01 T02550200  RH  072%=      5-min Rain = 0
KOD1 151346Z 15014KT 25/20 A2979 RMK A01 T02540199  RH  072%=      5-min Rain = 0
KOD1 151347Z 14012G17KT 25/20 A2979 RMK A01 T02530199  RH  072%=      5-min Rain = 0
KOD1 151348Z 15013KT 25/20 A2979 RMK A01 T02540200  RH  072%=      5-min Rain = 0
KOD1 151349Z 15014KT 25/20 A2979 RMK A01 T02540200  RH  072%=      5-min Rain = 0
KOD1 151350Z 14012KT 25/20 A2979 RMK A01 T02540200  RH  072%=      5-min Rain = 0
KOD1 151351Z 15012KT 26/20 A2979 RMK A01 T02550200  RH  071%=      5-min Rain = 0
KOD1 151352Z 16012KT 25/20 A2979 RMK A01 T02540199  RH  072%=      5-min Rain = 0
KOD1 151353Z 15013KT 25/20 A2979 RMK A01 T02540200  RH  072%=      5-min Rain = 0
KOD1 151354Z 14012KT 25/20 A2979 RMK A01 T02540199  RH  072%=      5-min Rain = 0
KOD1 151355Z 14012KT 26/20 A2979 RMK A01 T02560201  RH  072%=      5-min Rain = 0
KOD1 151356Z 14011KT 26/20 A2979 RMK A01 T02560200  RH  071%=      5-min Rain = 0
KOD1 151357Z 15010KT 26/20 A2979 RMK A01 T02560201  RH  072%=      5-min Rain = 0
KOD1 151358Z 15010KT 26/20 A2979 RMK A01 T02580203  RH  072%=      5-min Rain = 0
KOD1 151359Z 15013G18KT 26/20 A2979 RMK A01 T02580202  RH  071%=      5-min Rain = 0
KOD1 151400Z 16015KT 26/20 A2979 RMK A01 T02570201  RH  071%=      5-min Rain = 0
KOD1 151401Z 15014KT 26/20 A2979 RMK A01 T02560201  RH  072%=      5-min Rain = 0
KOD1 151402Z 15012KT 26/20 A2979 RMK A01 T02560202  RH  072%=      5-min Rain = 0
KOD1 151403Z 16013KT 26/20 A2979 RMK A01 T02570203  RH  072%=      5-min Rain = 0
KOD1 151404Z 15014KT 26/20 A2979 RMK A01 T02580203  RH  072%=      5-min Rain = 0
KOD1 151405Z 15014KT 26/20 A2979 RMK A01 T02580202  RH  071%=      5-min Rain = 0
KOD1 151406Z 16014KT 26/20 A2979 RMK A01 T02580203  RH  072%=      5-min Rain = 0
KOD1 151407Z 16015KT 26/20 A2979 RMK A01 T02570203  RH  072%=      5-min Rain = 0
KOD1 151408Z 16014KT 26/20 A2979 RMK A01 T02580204  RH  072%=      5-min Rain = 0
KOD1 151409Z 15015KT 26/20 A2979 RMK A01 T02580203  RH  072%=      5-min Rain = 0
KOD1 151410Z 16014KT 26/21 A2979 RMK A01 T02590205  RH  072%=      5-min Rain = 0
KOD1 151411Z 16016KT 26/20 A2978 RMK A01 T02600204  RH  071%=      5-min Rain = 0
KOD1 151412Z 15016KT 26/20 A2978 RMK A01 T02580202  RH  071%=      5-min Rain = 0
KOD1 151413Z 16015KT 26/20 A2978 RMK A01 T02590202  RH  071%=      5-min Rain = 0
KOD1 151414Z 16014KT 26/20 A2978 RMK A01 T02590203  RH  071%=      5-min Rain = 0
KOD1 151415Z 16015KT 26/20 A2978 RMK A01 T02590203  RH  071%=      5-min Rain = 0
KOD1 151416Z 16012KT 26/20 A2978 RMK A01 T02590204  RH  072%=      5-min Rain = 0
KOD1 151417Z 17015KT 26/21 A2978 RMK A01 T02600206  RH  072%=      5-min Rain = 0
KOD1 151418Z 16015KT 26/20 A2979 RMK A01 T02600204  RH  071%=      5-min Rain = 0
KOD1 151419Z 17013KT 26/20 A2979 RMK A01 T02600204  RH  071%=      5-min Rain = 0
KOD1 151420Z 16015KT 26/20 A2979 RMK A01 T02600203  RH  071%=      5-min Rain = 0
KOD1 151421Z 16016KT 26/20 A2979 RMK A01 T02600203  RH  071%=      5-min Rain = 0
KOD1 151422Z 16014KT 26/21 A2979 RMK A01 T02600205  RH  072%=      5-min Rain = 0
KOD1 151423Z 15016KT 26/20 A2979 RMK A01 T02610203  RH  070%=      5-min Rain = 0
KOD1 151424Z 16015G20KT 26/21 A2979 RMK A01 T02610205  RH  071%=      5-min Rain = 0
KOD1 151425Z 16017KT 26/20 A2979 RMK A01 T02610203  RH  070%=      5-min Rain = 0
KOD1 151426Z 16017KT 26/20 A2979 RMK A01 T02610203  RH  070%=      5-min Rain = 0
KOD1 151427Z 17014KT 26/20 A2979 RMK A01 T02600202  RH  071%=      5-min Rain = 0
KOD1 151428Z 17015KT 26/20 A2979 RMK A01 T02600204  RH  071%=      5-min Rain = 0
KOD1 151429Z 16016KT 26/20 A2979 RMK A01 T02610204  RH  071%=      5-min Rain = 0
KOD1 151430Z 15014KT 26/20 A2979 RMK A01 T02610203  RH  071%=      5-min Rain = 0
KOD1 151431Z 16015KT 26/20 A2979 RMK A01 T02620204  RH  071%=      5-min Rain = 0
KOD1 151432Z 18012KT 26/21 A2979 RMK A01 T02640206  RH  071%=      5-min Rain = 0
KOD1 151433Z 16013KT 26/21 A2979 RMK A01 T02630205  RH  070%=      5-min Rain = 0
KOD1 151434Z 16012KT 26/21 A2979 RMK A01 T02640205  RH  070%=      5-min Rain = 0
KOD1 151435Z 17012KT 26/21 A2979 RMK A01 T02640205  RH  070%=      5-min Rain = 0
KOD1 151436Z 16013KT 27/21 A2979 RMK A01 T02660209  RH  071%=      5-min Rain = 0
KOD1 151437Z 16015KT 27/20 A2979 RMK A01 T02660204  RH  069%=      5-min Rain = 0
KOD1 151438Z 15011G17KT 27/21 A2979 RMK A01 T02660207  RH  070%=      5-min Rain = 0
KOD1 151439Z 18014KT 27/21 A2979 RMK A01 T02660206  RH  069%=      5-min Rain = 0
KOD1 151440Z 16011KT 26/21 A2979 RMK A01 T02640205  RH  070%=      5-min Rain = 0
KOD1 151441Z 16014KT 27/21 A2979 RMK A01 T02650206  RH  070%=      5-min Rain = 0
KOD1 151442Z 17013KT 27/21 A2979 RMK A01 T02660207  RH  070%=      5-min Rain = 0
KOD1 151443Z 16014KT 27/20 A2979 RMK A01 T02650204  RH  069%=      5-min Rain = 0
KOD1 151444Z 16014KT 27/21 A2979 RMK A01 T02650206  RH  070%=      5-min Rain = 0
KOD1 151445Z 16014KT 27/21 A2979 RMK A01 T02660206  RH  070%=      5-min Rain = 0
KOD1 151446Z 16015KT 27/21 A2979 RMK A01 T02660205  RH  069%=      5-min Rain = 0
KOD1 151447Z 16014KT 27/21 A2979 RMK A01 T02660205  RH  069%=      5-min Rain = 0
KOD1 151448Z 15012KT 27/21 A2979 RMK A01 T02660206  RH  070%=      5-min Rain = 0
KOD1 151449Z 16015KT 27/21 A2979 RMK A01 T02670207  RH  069%=      5-min Rain = 0
KOD1 151450Z 15012KT 27/21 A2979 RMK A01 T02680205  RH  069%=      5-min Rain = 0
KOD1 151451Z 16013KT 27/21 A2978 RMK A01 T02680206  RH  069%=      5-min Rain = 0
KOD1 151452Z 16013KT 27/21 A2978 RMK A01 T02690206  RH  069%=      5-min Rain = 0
KOD1 151453Z 16012KT 27/21 A2978 RMK A01 T02690207  RH  069%=      5-min Rain = 0
KOD1 151454Z 16015KT 27/21 A2978 RMK A01 T02710208  RH  068%=      5-min Rain = 0
KOD1 151455Z 16016KT 27/20 A2978 RMK A01 T02700204  RH  067%=      5-min Rain = 0
KOD1 151456Z 15013KT 27/20 A2978 RMK A01 T02690204  RH  067%=      5-min Rain = 0
KOD1 151457Z 16014KT 27/21 A2979 RMK A01 T02710206  RH  068%=      5-min Rain = 0
KOD1 151458Z 16013KT 27/21 A2979 RMK A01 T02700205  RH  068%=      5-min Rain = 0
KOD1 151459Z 17015KT 27/21 A2978 RMK A01 T02700205  RH  068%=      5-min Rain = 0
KOD1 151500Z 17012KT 27/21 A2978 RMK A01 T02700206  RH  068%=      5-min Rain = 0
KOD1 151501Z 16011KT 27/21 A2978 RMK A01 T02710210  RH  069%=      5-min Rain = 0
KOD1 151502Z 16014KT 27/21 A2978 RMK A01 T02730207  RH  067%=      5-min Rain = 0
KOD1 151503Z 16013KT 27/21 A2978 RMK A01 T02720205  RH  067%=      5-min Rain = 0
KOD1 151504Z 17014KT 27/21 A2978 RMK A01 T02720207  RH  068%=      5-min Rain = 0
KOD1 151505Z 17015KT 27/21 A2978 RMK A01 T02710206  RH  067%=      5-min Rain = 0
KOD1 151506Z 17012KT 27/21 A2978 RMK A01 T02720206  RH  067%=      5-min Rain = 0
KOD1 151507Z 18012KT 27/21 A2978 RMK A01 T02740206  RH  066%=      5-min Rain = 0
KOD1 151508Z 17011KT 27/21 A2978 RMK A01 T02730208  RH  067%=      5-min Rain = 0
KOD1 151509Z 17011G16KT 28/21 A2978 RMK A01 T02760212  RH  068%=      5-min Rain = 0
KOD1 151510Z 17012G17KT 28/21 A2978 RMK A01 T02770206  RH  065%=      5-min Rain = 0
KOD1 151511Z 17011KT 28/21 A2978 RMK A01 T02760206  RH  066%=      5-min Rain = 0
KOD1 151512Z 16012KT 28/21 A2978 RMK A01 T02760206  RH  066%=      5-min Rain = 0
KOD1 151513Z 17011KT 28/21 A2978 RMK A01 T02760207  RH  066%=      5-min Rain = 0
KOD1 151514Z 17011KT 28/21 A2978 RMK A01 T02760207  RH  066%=      5-min Rain = 0
KOD1 151515Z 18014KT 28/21 A2978 RMK A01 T02760206  RH  066%=      5-min Rain = 0
KOD1 151516Z 17011KT 28/21 A2978 RMK A01 T02760208  RH  066%=      5-min Rain = 0
KOD1 151517Z 16012G18KT 28/21 A2978 RMK A01 T02770209  RH  066%=      5-min Rain = 0
KOD1 151518Z 16013KT 28/21 A2977 RMK A01 T02780208  RH  066%=      5-min Rain = 0
KOD1 151519Z 16017KT 28/21 A2977 RMK A01 T02790208  RH  065%=      5-min Rain = 0
KOD1 151520Z 17016KT 28/21 A2978 RMK A01 T02770206  RH  065%=      5-min Rain = 0
KOD1 151521Z 16014KT 28/20 A2978 RMK A01 T02750204  RH  065%=      5-min Rain = 0
KOD1 151522Z 16013KT 28/21 A2978 RMK A01 T02750206  RH  066%=      5-min Rain = 0
KOD1 151523Z 17014KT 28/21 A2978 RMK A01 T02760205  RH  065%=      5-min Rain = 0
KOD1 151524Z 16014KT 28/21 A2978 RMK A01 T02760207  RH  066%=      5-min Rain = 0
KOD1 151525Z 16014KT 28/21 A2978 RMK A01 T02780209  RH  066%=      5-min Rain = 0
KOD1 151526Z 17015KT 28/21 A2977 RMK A01 T02780207  RH  065%=      5-min Rain = 0
KOD1 151527Z 16015KT 28/21 A2977 RMK A01 T02780206  RH  065%=      5-min Rain = 0
KOD1 151528Z 17014KT 28/21 A2977 RMK A01 T02790208  RH  065%=      5-min Rain = 0
KOD1 151529Z 18011KT 28/21 A2977 RMK A01 T02800212  RH  066%=      5-min Rain = 0
KOD1 151530Z 17012KT 28/21 A2977 RMK A01 T02820212  RH  066%=      5-min Rain = 0
KOD1 151531Z 18015KT 28/21 A2977 RMK A01 T02810208  RH  065%=      5-min Rain = 0
KOD1 151532Z 17014KT 28/21 A2977 RMK A01 T02800209  RH  065%=      5-min Rain = 0
KOD1 151533Z 16016KT 28/21 A2977 RMK A01 T02800209  RH  065%=      5-min Rain = 0
KOD1 151534Z 17015KT 28/21 A2977 RMK A01 T02790206  RH  064%=      5-min Rain = 0
KOD1 151535Z 17016KT 28/21 A2977 RMK A01 T02790207  RH  065%=      5-min Rain = 0
KOD1 151536Z 16016KT 28/21 A2977 RMK A01 T02790208  RH  065%=      5-min Rain = 0
KOD1 151537Z 16012KT 28/21 A2977 RMK A01 T02800208  RH  065%=      5-min Rain = 0
KOD1 151538Z 16017KT 28/21 A2977 RMK A01 T02820207  RH  064%=      5-min Rain = 0
KOD1 151539Z 16019KT 28/20 A2977 RMK A01 T02820204  RH  063%=      5-min Rain = 0
KOD1 151540Z 17014KT 28/20 A2977 RMK A01 T02800204  RH  063%=      5-min Rain = 0
KOD1 151541Z 17013KT 28/21 A2977 RMK A01 T02810207  RH  064%=      5-min Rain = 0
KOD1 151542Z 18014KT 28/21 A2977 RMK A01 T02830210  RH  065%=      5-min Rain = 0
KOD1 151543Z 17014KT 28/21 A2977 RMK A01 T02830208  RH  064%=      5-min Rain = 0
KOD1 151544Z 17018KT 28/21 A2977 RMK A01 T02830207  RH  063%=      5-min Rain = 0
KOD1 151545Z 17015KT 28/21 A2977 RMK A01 T02820206  RH  063%=      5-min Rain = 0
KOD1 151546Z 16017KT 28/21 A2977 RMK A01 T02830207  RH  063%=      5-min Rain = 0
KOD1 151547Z 17017KT 28/21 A2977 RMK A01 T02840207  RH  063%=      5-min Rain = 0
KOD1 151548Z 17015G20KT 28/21 A2977 RMK A01 T02840206  RH  063%=      5-min Rain = 0
KOD1 151549Z 16018KT 28/21 A2977 RMK A01 T02840207  RH  063%=      5-min Rain = 0
KOD1 151550Z 17017KT 28/21 A2977 RMK A01 T02840206  RH  063%=      5-min Rain = 0
KOD1 151551Z 17017KT 29/21 A2977 RMK A01 T02850207  RH  063%=      5-min Rain = 0
KOD1 151552Z 17013KT 29/21 A2977 RMK A01 T02850210  RH  063%=      5-min Rain = 0
KOD1 151553Z 17016KT 29/21 A2976 RMK A01 T02870211  RH  064%=      5-min Rain = 0
KOD1 151554Z 16015KT 29/21 A2976 RMK A01 T02860208  RH  062%=      5-min Rain = 0
KOD1 151555Z 17017KT 29/21 A2976 RMK A01 T02870208  RH  062%=      5-min Rain = 0
KOD1 151556Z 17015KT 29/21 A2976 RMK A01 T02860206  RH  062%=      5-min Rain = 0
KOD1 151557Z 18015KT 29/21 A2976 RMK A01 T02860205  RH  062%=      5-min Rain = 0
KOD1 151558Z 18014KT 29/21 A2976 RMK A01 T02860208  RH  063%=      5-min Rain = 0
KOD1 151559Z 17015G20KT 29/21 A2976 RMK A01 T02850208  RH  063%=      5-min Rain = 0
KOD1 151600Z 17015KT 29/21 A2976 RMK A01 T02860208  RH  063%=      5-min Rain = 0
KOD1 151601Z 18017KT 29/21 A2976 RMK A01 T02870209  RH  063%=      5-min Rain = 0
KOD1 151602Z 17013KT 29/21 A2976 RMK A01 T02880209  RH  062%=      5-min Rain = 0
KOD1 151603Z 17014KT 29/21 A2976 RMK A01 T02890207  RH  062%=      5-min Rain = 0
KOD1 151604Z 18013G18KT 29/21 A2976 RMK A01 T02890209  RH  062%=      5-min Rain = 0
KOD1 151605Z 18013KT 29/21 A2976 RMK A01 T02900206  RH  061%=      5-min Rain = 0
KOD1 151606Z 17012KT 29/21 A2976 RMK A01 T02910211  RH  062%=      5-min Rain = 0
KOD1 151607Z 17015KT 29/21 A2976 RMK A01 T02930208  RH  060%=      5-min Rain = 0
KOD1 151608Z 18015KT 29/21 A2976 RMK A01 T02930205  RH  059%=      5-min Rain = 0
KOD1 151609Z 17013KT 29/21 A2976 RMK A01 T02920206  RH  060%=      5-min Rain = 0
KOD1 151610Z 17015G20KT 29/21 A2976 RMK A01 T02940208  RH  060%=      5-min Rain = 0
KOD1 151611Z 16016KT 29/21 A2976 RMK A01 T02930206  RH  059%=      5-min Rain = 0
KOD1 151612Z 16017KT 29/21 A2976 RMK A01 T02930206  RH  059%=      5-min Rain = 0
KOD1 151613Z 17016KT 29/21 A2976 RMK A01 T02930206  RH  059%=      5-min Rain = 0
KOD1 151614Z 17017KT 29/21 A2976 RMK A01 T02930206  RH  060%=      5-min Rain = 0
KOD1 151615Z 17016G21KT 29/21 A2976 RMK A01 T02920206  RH  060%=      5-min Rain = 0
KOD1 151616Z 17013KT 29/21 A2976 RMK A01 T02940207  RH  059%=      5-min Rain = 0
KOD1 151617Z 18014KT 30/21 A2976 RMK A01 T02960208  RH  059%=      5-min Rain = 0
KOD1 151618Z 17016KT 30/21 A2976 RMK A01 T02960209  RH  060%=      5-min Rain = 0
KOD1 151619Z 16013KT 30/21 A2976 RMK A01 T02960211  RH  061%=      5-min Rain = 0
KOD1 151620Z 16014KT 30/21 A2976 RMK A01 T02970210  RH  059%=      5-min Rain = 0
KOD1 151621Z 18012G17KT 30/21 A2976 RMK A01 T02980211  RH  060%=      5-min Rain = 0
KOD1 151622Z 19011KT 30/21 A2977 RMK A01 T02970211  RH  060%=      5-min Rain = 0
KOD1 151623Z 18014KT 30/21 A2977 RMK A01 T02970212  RH  060%=      5-min Rain = 0
KOD1 151624Z 17016KT 30/21 A2977 RMK A01 T02960207  RH  059%=      5-min Rain = 0
KOD1 151625Z 17016KT 30/21 A2977 RMK A01 T02950207  RH  059%=      5-min Rain = 0
KOD1 151626Z 17012KT 29/21 A2977 RMK A01 T02940207  RH  060%=      5-min Rain = 0
KOD1 151627Z 17012G18KT 30/21 A2977 RMK A01 T02950212  RH  061%=      5-min Rain = 0
KOD1 151628Z 17015KT 30/21 A2977 RMK A01 T02970210  RH  060%=      5-min Rain = 0
KOD1 151629Z 16015G21KT 30/21 A2977 RMK A01 T02970211  RH  060%=      5-min Rain = 0
KOD1 151630Z 16017KT 30/21 A2977 RMK A01 T02980207  RH  058%=      5-min Rain = 0
KOD1 151631Z 16017G22KT 30/21 A2977 RMK A01 T02960207  RH  058%=      5-min Rain = 0
KOD1 151632Z 17018KT 30/21 A2976 RMK A01 T02970208  RH  059%=      5-min Rain = 0
KOD1 151633Z 17016KT 30/21 A2976 RMK A01 T02970206  RH  058%=      5-min Rain = 0
KOD1 151634Z 19017KT 30/21 A2976 RMK A01 T02960207  RH  059%=      5-min Rain = 0
KOD1 151635Z 19014KT 30/21 A2976 RMK A01 T02960209  RH  060%=      5-min Rain = 0
KOD1 151636Z 19014KT 30/21 A2976 RMK A01 T02970208  RH  059%=      5-min Rain = 0
KOD1 151637Z 17017KT 30/21 A2976 RMK A01 T02980211  RH  060%=      5-min Rain = 0
KOD1 151638Z 18016KT 30/21 A2976 RMK A01 T02990208  RH  058%=      5-min Rain = 0
KOD1 151639Z 17015KT 30/21 A2976 RMK A01 T02980209  RH  059%=      5-min Rain = 0
KOD1 151640Z 18014KT 30/21 A2976 RMK A01 T02980209  RH  059%=      5-min Rain = 0
KOD1 151641Z 18013KT 30/21 A2976 RMK A01 T02980210  RH  059%=      5-min Rain = 0
KOD1 151642Z 18011KT 30/22 A2976 RMK A01 T03000215  RH  060%=      5-min Rain = 0
KOD1 151643Z 18016KT 30/21 A2976 RMK A01 T03020212  RH  059%=      5-min Rain = 0
KOD1 151644Z 18018KT 30/21 A2976 RMK A01 T03000210  RH  058%=      5-min Rain = 0
KOD1 151645Z 18015KT 30/21 A2976 RMK A01 T03010212  RH  059%=      5-min Rain = 0
KOD1 151646Z 18014KT 30/21 A2976 RMK A01 T03000208  RH  058%=      5-min Rain = 0
KOD1 151647Z 19015KT 30/21 A2976 RMK A01 T02990207  RH  058%=      5-min Rain = 0
KOD1 151648Z 17016KT 30/21 A2976 RMK A01 T02980209  RH  059%=      5-min Rain = 0
KOD1 151649Z 17019KT 30/21 A2976 RMK A01 T03000209  RH  058%=      5-min Rain = 0
KOD1 151650Z 17017KT 30/21 A2976 RMK A01 T03010210  RH  058%=      5-min Rain = 0
KOD1 151651Z 18016KT 30/21 A2976 RMK A01 T03020212  RH  059%=      5-min Rain = 0
KOD1 151652Z 18017KT 30/21 A2976 RMK A01 T03020211  RH  058%=      5-min Rain = 0
KOD1 151653Z 17020G27KT 30/21 A2976 RMK A01 T03020208  RH  057%=      5-min Rain = 0
KOD1 151654Z 17020KT 30/21 A2976 RMK A01 T03000208  RH  058%=      5-min Rain = 0
KOD1 151655Z 17016G21KT 30/21 A2976 RMK A01 T03000209  RH  058%=      5-min Rain = 0
KOD1 151656Z 17018G23KT 30/21 A2976 RMK A01 T03010208  RH  057%=      5-min Rain = 0
KOD1 151657Z 17017KT 30/21 A2976 RMK A01 T03020206  RH  056%=      5-min Rain = 0
KOD1 151658Z 17016KT 30/21 A2976 RMK A01 T03020209  RH  058%=      5-min Rain = 0
KOD1 151659Z 17015KT 30/21 A2976 RMK A01 T03040212  RH  058%=      5-min Rain = 0
KOD1 151700Z 17015KT 31/21 A2976 RMK A01 T03050208  RH  056%=      5-min Rain = 0
KOD1 151701Z 18015KT 30/21 A2976 RMK A01 T03040207  RH  056%=      5-min Rain = 0
KOD1 151702Z 18014KT 30/21 A2976 RMK A01 T03030207  RH  056%=      5-min Rain = 0
KOD1 151703Z 18013G18KT 30/21 A2976 RMK A01 T03030209  RH  057%=      5-min Rain = 0
KOD1 151704Z 19015KT 30/21 A2976 RMK A01 T03040208  RH  057%=      5-min Rain = 0
KOD1 151705Z 18016KT 30/20 A2976 RMK A01 T03020204  RH  056%=      5-min Rain = 0
KOD1 151706Z 17015G20KT 30/21 A2976 RMK A01 T03010207  RH  057%=      5-min Rain = 0
KOD1 151707Z 18013KT 30/21 A2976 RMK A01 T03030211  RH  058%=      5-min Rain = 0
KOD1 151708Z 16013KT 31/21 A2976 RMK A01 T03050213  RH  058%=      5-min Rain = 0
KOD1 151709Z 16013KT 31/21 A2976 RMK A01 T03060211  RH  057%=      5-min Rain = 0
KOD1 151710Z 17016KT 31/21 A2976 RMK A01 T03080213  RH  057%=      5-min Rain = 0
KOD1 151711Z 17014KT 31/21 A2976 RMK A01 T03070210  RH  056%=      5-min Rain = 0
KOD1 151712Z 18018KT 31/21 A2976 RMK A01 T03070211  RH  056%=      5-min Rain = 0
KOD1 151713Z 17018KT 31/21 A2976 RMK A01 T03060205  RH  055%=      5-min Rain = 0
KOD1 151714Z 17016KT 31/21 A2976 RMK A01 T03050207  RH  056%=      5-min Rain = 0
KOD1 151715Z 16016KT 31/21 A2976 RMK A01 T03060205  RH  055%=      5-min Rain = 0
KOD1 151716Z 16016G21KT 31/21 A2976 RMK A01 T03070207  RH  055%=      5-min Rain = 0
KOD1 151717Z 17016KT 31/21 A2976 RMK A01 T03080207  RH  055%=      5-min Rain = 0
KOD1 151718Z 18015KT 31/21 A2976 RMK A01 T03080208  RH  055%=      5-min Rain = 0
KOD1 151719Z 19016KT 31/21 A2976 RMK A01 T03070209  RH  056%=      5-min Rain = 0
KOD1 151720Z 18016KT 31/21 A2976 RMK A01 T03070210  RH  056%=      5-min Rain = 0
KOD1 151721Z 18017KT 31/21 A2976 RMK A01 T03070209  RH  056%=      5-min Rain = 0
KOD1 151722Z 18014KT 31/21 A2976 RMK A01 T03070209  RH  056%=      5-min Rain = 0
KOD1 151723Z 18015KT 31/21 A2976 RMK A01 T03080209  RH  055%=      5-min Rain = 0
KOD1 151724Z 17014KT 31/21 A2976 RMK A01 T03080208  RH  055%=      5-min Rain = 0
KOD1 151725Z 17012KT 31/21 A2976 RMK A01 T03080211  RH  056%=      5-min Rain = 0
KOD1 151726Z 18011KT 31/21 A2976 RMK A01 T03100214  RH  057%=      5-min Rain = 0
KOD1 151727Z 17012KT 31/21 A2976 RMK A01 T03110214  RH  056%=      5-min Rain = 0
KOD1 151728Z 18013KT 31/21 A2976 RMK A01 T03120213  RH  056%=      5-min Rain = 0
KOD1 151729Z 17017G22KT 31/21 A2976 RMK A01 T03110209  RH  055%=      5-min Rain = 0
KOD1 151730Z 18017KT 31/21 A2976 RMK A01 T03090206  RH  054%=      5-min Rain = 0
KOD1 151731Z 18016KT 31/21 A2976 RMK A01 T03070207  RH  055%=      5-min Rain = 0
KOD1 151732Z 16014KT 31/21 A2976 RMK A01 T03100212  RH  056%=      5-min Rain = 0
KOD1 151733Z 16017G23KT 31/21 A2976 RMK A01 T03130207  RH  053%=      5-min Rain = 0
KOD1 151734Z 16019KT 31/20 A2976 RMK A01 T03130204  RH  052%=      5-min Rain = 0
KOD1 151735Z 18014KT 31/21 A2976 RMK A01 T03120210  RH  055%=      5-min Rain = 0
KOD1 151736Z 17016KT 31/21 A2976 RMK A01 T03130211  RH  055%=      5-min Rain = 0
KOD1 151737Z 18016KT 31/21 A2976 RMK A01 T03120207  RH  054%=      5-min Rain = 0
KOD1 151738Z 18016KT 31/21 A2976 RMK A01 T03120208  RH  054%=      5-min Rain = 0
KOD1 151739Z 18014KT 31/21 A2976 RMK A01 T03120211  RH  055%=      5-min Rain = 0
KOD1 151740Z 17012KT 31/21 A2976 RMK A01 T03120209  RH  054%=      5-min Rain = 0
KOD1 151741Z 16014KT 31/21 A2976 RMK A01 T03130211  RH  055%=      5-min Rain = 0
KOD1 151742Z 16015KT 31/20 A2976 RMK A01 T03130200  RH  051%=      5-min Rain = 0
KOD1 151743Z 18015KT 31/21 A2976 RMK A01 T03120205  RH  053%=      5-min Rain = 0
KOD1 151744Z 19015G20KT 31/21 A2976 RMK A01 T03130211  RH  055%=      5-min Rain = 0
KOD1 151745Z 18014KT 31/21 A2976 RMK A01 T03130205  RH  053%=      5-min Rain = 0
KOD1 151746Z 18011KT 31/21 A2976 RMK A01 T03120209  RH  054%=      5-min Rain = 0
KOD1 151747Z 17013G19KT 31/21 A2976 RMK A01 T03130212  RH  055%=      5-min Rain = 0
KOD1 151748Z 16012G17KT 32/21 A2976 RMK A01 T03150211  RH  054%=      5-min Rain = 0
KOD1 151749Z 16012KT 32/21 A2976 RMK A01 T03160211  RH  054%=      5-min Rain = 0
KOD1 151750Z 18011KT 32/21 A2976 RMK A01 T03160212  RH  054%=      5-min Rain = 0
KOD1 151751Z 18016KT 32/21 A2976 RMK A01 T03170211  RH  053%=      5-min Rain = 0
KOD1 151752Z 18014KT 32/20 A2976 RMK A01 T03160203  RH  051%=      5-min Rain = 0
KOD1 151753Z 17012G17KT 32/20 A2976 RMK A01 T03150204  RH  052%=      5-min Rain = 0
KOD1 151754Z 17016KT 31/20 A2976 RMK A01 T03140204  RH  052%=      5-min Rain = 0
KOD1 151755Z 19014KT 31/21 A2976 RMK A01 T03140206  RH  053%=      5-min Rain = 0
KOD1 151756Z 20011KT 31/21 A2976 RMK A01 T03140210  RH  054%=      5-min Rain = 0
KOD1 151757Z 19013KT 31/21 A2976 RMK A01 T03140211  RH  054%=      5-min Rain = 0
KOD1 151758Z 18012KT 32/22 A2976 RMK A01 T03150215  RH  056%=      5-min Rain = 0
KOD1 151759Z 16014G19KT 32/21 A2976 RMK A01 T03160214  RH  055%=      5-min Rain = 0
KOD1 151800Z 16019G25KT 32/21 A2976 RMK A01 T03170209  RH  053%=      5-min Rain = 0
KOD1 151801Z 17019KT 32/21 A2976 RMK A01 T03170205  RH  052%=      5-min Rain = 0
KOD1 151802Z 18014KT 32/21 A2976 RMK A01 T03150208  RH  053%=      5-min Rain = 0
KOD1 151803Z 18012KT 32/21 A2976 RMK A01 T03150207  RH  053%=      5-min Rain = 0
KOD1 151804Z 20012KT 32/21 A2976 RMK A01 T03150206  RH  052%=      5-min Rain = 0
KOD1 151805Z 17009KT 31/21 A2976 RMK A01 T03140210  RH  054%=      5-min Rain = 0
KOD1 151806Z 16012KT 32/21 A2976 RMK A01 T03170213  RH  054%=      5-min Rain = 0
KOD1 151807Z 18013KT 32/21 A2976 RMK A01 T03180207  RH  052%=      5-min Rain = 0
KOD1 151808Z 19016KT 32/21 A2976 RMK A01 T03180206  RH  051%=      5-min Rain = 0
KOD1 151809Z 19013KT 32/21 A2976 RMK A01 T03170205  RH  051%=      5-min Rain = 0
KOD1 151810Z 19009KT 32/21 A2976 RMK A01 T03160206  RH  052%=      5-min Rain = 0
KOD1 151811Z 20009KT 32/21 A2976 RMK A01 T03170210  RH  053%=      5-min Rain = 0
KOD1 151812Z 19009KT 32/21 A2976 RMK A01 T03180211  RH  053%=      5-min Rain = 0
KOD1 151813Z 19013KT 32/21 A2976 RMK A01 T03190214  RH  054%=      5-min Rain = 0
KOD1 151814Z 17013KT 32/21 A2976 RMK A01 T03190210  RH  053%=      5-min Rain = 0
KOD1 151815Z 17015KT 32/21 A2976 RMK A01 T03190208  RH  052%=      5-min Rain = 0
KOD1 151816Z 17015KT 32/21 A2976 RMK A01 T03190207  RH  052%=      5-min Rain = 0
KOD1 151817Z 18014KT 32/21 A2976 RMK A01 T03190205  RH  051%=      5-min Rain = 0
KOD1 151818Z 18011KT 32/21 A2976 RMK A01 T03190209  RH  052%=      5-min Rain = 0
KOD1 151819Z 18011KT 32/21 A2975 RMK A01 T03190206  RH  051%=      5-min Rain = 0
KOD1 151820Z 17012KT 32/21 A2975 RMK A01 T03190207  RH  052%=      5-min Rain = 0
KOD1 151821Z 18014G21KT 32/21 A2975 RMK A01 T03210214  RH  053%=      5-min Rain = 0
KOD1 151822Z 18016KT 32/20 A2975 RMK A01 T03220202  RH  049%=      5-min Rain = 0
KOD1 151823Z 17016KT 32/20 A2975 RMK A01 T03210197  RH  048%=      5-min Rain = 0
KOD1 151824Z 18015KT 32/20 A2975 RMK A01 T03200199  RH  049%=      5-min Rain = 0
KOD1 151825Z 18010KT 32/21 A2975 RMK A01 T03210205  RH  051%=      5-min Rain = 0
KOD1 151826Z 17013KT 32/21 A2975 RMK A01 T03220205  RH  050%=      5-min Rain = 0
KOD1 151827Z 18012KT 32/21 A2975 RMK A01 T03220206  RH  051%=      5-min Rain = 0
KOD1 151828Z 17015KT 32/21 A2975 RMK A01 T03230211  RH  052%=      5-min Rain = 0
KOD1 151829Z 16015KT 32/21 A2975 RMK A01 T03230207  RH  050%=      5-min Rain = 0
KOD1 151830Z 17013KT 32/21 A2975 RMK A01 T03220205  RH  050%=      5-min Rain = 0
KOD1 151831Z 16012KT 32/21 A2975 RMK A01 T03220206  RH  050%=      5-min Rain = 0
KOD1 151832Z 15014KT 32/21 A2975 RMK A01 T03230207  RH  050%=      5-min Rain = 0
KOD1 151833Z 17012KT 33/21 A2975 RMK A01 T03250208  RH  050%=      5-min Rain = 0
KOD1 151834Z 18011KT 32/21 A2975 RMK A01 T03240206  RH  050%=      5-min Rain = 0
KOD1 151835Z 19014KT 32/21 A2975 RMK A01 T03230212  RH  052%=      5-min Rain = 0
KOD1 151836Z 19015KT 32/21 A2975 RMK A01 T03240207  RH  050%=      5-min Rain = 0
KOD1 151837Z 17014KT 32/21 A2975 RMK A01 T03240208  RH  050%=      5-min Rain = 0
KOD1 151838Z 20013KT 33/21 A2975 RMK A01 T03250208  RH  050%=      5-min Rain = 0
KOD1 151839Z 20011G16KT 32/20 A2975 RMK A01 T03230203  RH  049%=      5-min Rain = 0
KOD1 151840Z 19013KT 32/21 A2975 RMK A01 T03230207  RH  050%=      5-min Rain = 0
KOD1 151841Z 19013KT 32/21 A2975 RMK A01 T03240211  RH  051%=      5-min Rain = 0
KOD1 151842Z 19013KT 32/20 A2975 RMK A01 T03240202  RH  048%=      5-min Rain = 0
KOD1 151843Z 19009KT 33/21 A2975 RMK A01 T03250210  RH  051%=      5-min Rain = 0
KOD1 151844Z 17010KT 33/22 A2975 RMK A01 T03270218  RH  053%=      5-min Rain = 0
KOD1 151845Z 17015KT 33/21 A2975 RMK A01 T03270214  RH  051%=      5-min Rain = 0
KOD1 151846Z 18013KT 33/21 A2975 RMK A01 T03250213  RH  052%=      5-min Rain = 0
KOD1 151847Z 18015KT 32/21 A2975 RMK A01 T03240214  RH  052%=      5-min Rain = 0
KOD1 151848Z 17013KT 33/22 A2975 RMK A01 T03260219  RH  053%=      5-min Rain = 0
KOD1 151849Z 16013KT 33/22 A2975 RMK A01 T03270215  RH  052%=      5-min Rain = 0
KOD1 151850Z 16011KT 33/22 A2975 RMK A01 T03270215  RH  052%=      5-min Rain = 0
KOD1 151851Z 16012KT 33/22 A2975 RMK A01 T03290217  RH  052%=      5-min Rain = 0
KOD1 151852Z 17012KT 33/22 A2975 RMK A01 T03300218  RH  052%=      5-min Rain = 0
KOD1 151853Z 16016KT 33/22 A2975 RMK A01 T03290216  RH  052%=      5-min Rain = 0
KOD1 151854Z 18012KT 33/21 A2975 RMK A01 T03260213  RH  051%=      5-min Rain = 0
KOD1 151855Z 17014G19KT 33/21 A2975 RMK A01 T03250213  RH  052%=      5-min Rain = 0
KOD1 151856Z 17016KT 33/21 A2975 RMK A01 T03250209  RH  050%=      5-min Rain = 0
KOD1 151857Z 18011KT 33/21 A2975 RMK A01 T03250209  RH  051%=      5-min Rain = 0
KOD1 151858Z 16010KT 33/22 A2975 RMK A01 T03260215  RH  052%=      5-min Rain = 0
KOD1 151859Z 16011G18KT 33/22 A2975 RMK A01 T03280219  RH  053%=      5-min Rain = 0
KOD1 151900Z 17012G17KT 33/22 A2974 RMK A01 T03280215  RH  051%=      5-min Rain = 0
KOD1 151901Z 16012KT 33/22 A2974 RMK A01 T03270215  RH  052%=      5-min Rain = 0
KOD1 151902Z 17013KT 33/22 A2974 RMK A01 T03280216  RH  052%=      5-min Rain = 0
KOD1 151903Z 15016KT 33/21 A2974 RMK A01 T03280212  RH  051%=      5-min Rain = 0
KOD1 151904Z 17015KT 33/21 A2974 RMK A01 T03280213  RH  051%=      5-min Rain = 0
KOD1 151905Z 14014KT 33/21 A2974 RMK A01 T03280210  RH  050%=      5-min Rain = 0
KOD1 151906Z 15011KT 33/21 A2974 RMK A01 T03280210  RH  050%=      5-min Rain = 0
KOD1 151907Z 15009G14KT 33/21 A2974 RMK A01 T03280211  RH  050%=      5-min Rain = 0
KOD1 151908Z 14011KT 33/21 A2974 RMK A01 T03300214  RH  051%=      5-min Rain = 0
KOD1 151909Z 16014KT 33/21 A2974 RMK A01 T03330214  RH  050%=      5-min Rain = 0
KOD1 151910Z 15017KT 33/21 A2974 RMK A01 T03330213  RH  049%=      5-min Rain = 0
KOD1 151911Z 15017KT 33/21 A2974 RMK A01 T03320212  RH  049%=      5-min Rain = 0
KOD1 151912Z 15014KT 33/21 A2974 RMK A01 T03300213  RH  050%=      5-min Rain = 0
KOD1 151913Z 15017KT 33/21 A2974 RMK A01 T03320213  RH  050%=      5-min Rain = 0
KOD1 151914Z 16016KT 33/21 A2974 RMK A01 T03310214  RH  050%=      5-min Rain = 0
KOD1 151915Z 16015KT 33/22 A2974 RMK A01 T03310218  RH  051%=      5-min Rain = 0
KOD1 151916Z 17013KT 33/22 A2974 RMK A01 T03310219  RH  052%=      5-min Rain = 0
KOD1 151917Z 17014G19KT 33/22 A2974 RMK A01 T03310216  RH  051%=      5-min Rain = 0
KOD1 151918Z 15018KT 33/22 A2974 RMK A01 T03300215  RH  051%=      5-min Rain = 0
KOD1 151919Z 16019KT 33/21 A2974 RMK A01 T03300213  RH  050%=      5-min Rain = 0
KOD1 151920Z 18017KT 33/22 A2974 RMK A01 T03290216  RH  052%=      5-min Rain = 0
KOD1 151921Z 17016KT 33/22 A2974 RMK A01 T03290216  RH  051%=      5-min Rain = 0
KOD1 151922Z 18017KT 33/21 A2974 RMK A01 T03280212  RH  051%=      5-min Rain = 0
KOD1 151923Z 18012KT 33/21 A2974 RMK A01 T03270213  RH  051%=      5-min Rain = 0
KOD1 151924Z 17011KT 33/22 A2974 RMK A01 T03280218  RH  052%=      5-min Rain = 0
KOD1 151925Z 15011G17KT 33/22 A2974 RMK A01 T03300220  RH  053%=      5-min Rain = 0
KOD1 151926Z 15013KT 33/22 A2974 RMK A01 T03330218  RH  051%=      5-min Rain = 0
KOD1 151927Z 14013KT 34/22 A2974 RMK A01 T03360217  RH  050%=      5-min Rain = 0
KOD1 151928Z 14013G18KT 34/22 A2974 RMK A01 T03350216  RH  050%=      5-min Rain = 0
KOD1 151929Z 16014G19KT 34/22 A2974 RMK A01 T03360217  RH  050%=      5-min Rain = 0
KOD1 151930Z 18012KT 34/22 A2974 RMK A01 T03350220  RH  051%=      5-min Rain = 0
KOD1 151931Z 17013KT 33/22 A2974 RMK A01 T03330220  RH  052%=      5-min Rain = 0
KOD1 151932Z 16014KT 33/22 A2974 RMK A01 T03340221  RH  052%=      5-min Rain = 0
KOD1 151933Z 16018KT 34/22 A2973 RMK A01 T03350216  RH  050%=      5-min Rain = 0
KOD1 151934Z 14015KT 33/21 A2973 RMK A01 T03340212  RH  049%=      5-min Rain = 0
KOD1 151935Z 15015KT 34/21 A2973 RMK A01 T03350213  RH  049%=      5-min Rain = 0
KOD1 151936Z 16015KT 34/22 A2973 RMK A01 T03370220  RH  050%=      5-min Rain = 0
KOD1 151937Z 16016G21KT 34/22 A2973 RMK A01 T03360215  RH  049%=      5-min Rain = 0
KOD1 151938Z 17014KT 33/21 A2973 RMK A01 T03340214  RH  049%=      5-min Rain = 0
KOD1 151939Z 16012KT 33/22 A2974 RMK A01 T03330219  RH  051%=      5-min Rain = 0
KOD1 151940Z 14014KT 34/22 A2974 RMK A01 T03350217  RH  050%=      5-min Rain = 0
KOD1 151941Z 16015KT 33/21 A2973 RMK A01 T03340212  RH  049%=      5-min Rain = 0
KOD1 151942Z 16012KT 33/21 A2973 RMK A01 T03320212  RH  050%=      5-min Rain = 0
KOD1 151943Z 16016G23KT 33/22 A2973 RMK A01 T03320216  RH  051%=      5-min Rain = 0
KOD1 151944Z 17011KT 33/21 A2973 RMK A01 T03320211  RH  049%=      5-min Rain = 0
KOD1 151945Z 16012KT 33/21 A2973 RMK A01 T03310212  RH  049%=      5-min Rain = 0
KOD1 151946Z 15018KT 33/21 A2973 RMK A01 T03330214  RH  050%=      5-min Rain = 0
KOD1 151947Z 16016G21KT 34/21 A2973 RMK A01 T03350212  RH  049%=      5-min Rain = 0
KOD1 151948Z 15016G21KT 34/21 A2973 RMK A01 T03350214  RH  049%=      5-min Rain = 0
KOD1 151949Z 14016KT 33/21 A2973 RMK A01 T03340209  RH  048%=      5-min Rain = 0
KOD1 151950Z 14015KT 34/21 A2973 RMK A01 T03350211  RH  048%=      5-min Rain = 0
KOD1 151951Z 14014KT 34/21 A2973 RMK A01 T03350210  RH  048%=      5-min Rain = 0
KOD1 151952Z 15013KT 34/21 A2973 RMK A01 T03350214  RH  049%=      5-min Rain = 0
KOD1 151953Z 16018KT 34/21 A2973 RMK A01 T03350214  RH  049%=      5-min Rain = 0
KOD1 151954Z 18016KT 33/21 A2973 RMK A01 T03330210  RH  049%=      5-min Rain = 0
KOD1 151955Z 18013KT 33/22 A2973 RMK A01 T03320215  RH  051%=      5-min Rain = 0
KOD1 151956Z 19012KT 33/22 A2973 RMK A01 T03320218  RH  051%=      5-min Rain = 0
KOD1 151957Z 18013KT 33/22 A2973 RMK A01 T03320217  RH  051%=      5-min Rain = 0
KOD1 151958Z 17014KT 33/22 A2973 RMK A01 T03320218  RH  051%=      5-min Rain = 0
KOD1 151959Z 17016G21KT 33/22 A2973 RMK A01 T03330217  RH  051%=      5-min Rain = 0
KOD1 152000Z 16015KT 33/22 A2973 RMK A01 T03330218  RH  051%=      5-min Rain = 0
KOD1 152001Z 15016KT 34/21 A2973 RMK A01 T03360211  RH  048%=      5-min Rain = 0
KOD1 152002Z 14017KT 34/21 A2973 RMK A01 T03380211  RH  048%=      5-min Rain = 0
KOD1 152003Z 15014KT 34/21 A2973 RMK A01 T03360207  RH  047%=      5-min Rain = 0
KOD1 152004Z 15012G17KT 34/21 A2973 RMK A01 T03360214  RH  049%=      5-min Rain = 0
KOD1 152005Z 16018KT 34/21 A2973 RMK A01 T03370212  RH  048%=      5-min Rain = 0
KOD1 152006Z 17013KT 34/21 A2973 RMK A01 T03350211  RH  048%=      5-min Rain = 0
KOD1 152007Z 17012KT 34/22 A2973 RMK A01 T03350215  RH  050%=      5-min Rain = 0
KOD1 152008Z 15016KT 34/21 A2973 RMK A01 T03350211  RH  048%=      5-min Rain = 0
KOD1 152009Z 14017KT 34/21 A2973 RMK A01 T03370209  RH  047%=      5-min Rain = 0
KOD1 152010Z 16018KT 34/21 A2973 RMK A01 T03390211  RH  047%=      5-min Rain = 0
KOD1 152011Z 17017KT 34/21 A2973 RMK A01 T03380214  RH  048%=      5-min Rain = 0
KOD1 152012Z 17015G20KT 34/22 A2973 RMK A01 T03360216  RH  050%=      5-min Rain = 0
KOD1 152013Z 17013KT 34/22 A2973 RMK A01 T03360217  RH  050%=      5-min Rain = 0
KOD1 152014Z 17017KT 34/21 A2973 RMK A01 T03360213  RH  049%=      5-min Rain = 0
KOD1 152015Z 17018G23KT 34/21 A2973 RMK A01 T03350211  RH  048%=      5-min Rain = 0
KOD1 152016Z 17011KT 34/21 A2973 RMK A01 T03350213  RH  049%=      5-min Rain = 0
KOD1 152017Z 17012KT 34/22 A2973 RMK A01 T03350216  RH  050%=      5-min Rain = 0
KOD1 152018Z 18013KT 34/22 A2973 RMK A01 T03350216  RH  050%=      5-min Rain = 0
KOD1 152019Z 18019KT 33/21 A2973 RMK A01 T03340211  RH  049%=      5-min Rain = 0
KOD1 152020Z 18016KT 33/21 A2973 RMK A01 T03330210  RH  049%=      5-min Rain = 0
KOD1 152021Z 18013KT 33/21 A2973 RMK A01 T03330211  RH  049%=      5-min Rain = 0
KOD1 152022Z 17011KT 33/21 A2973 RMK A01 T03340213  RH  049%=      5-min Rain = 0
KOD1 152023Z 16016KT 34/22 A2973 RMK A01 T03350217  RH  050%=      5-min Rain = 0
KOD1 152024Z 15015KT 34/21 A2973 RMK A01 T03360214  RH  049%=      5-min Rain = 0
KOD1 152025Z 14017KT 34/21 A2973 RMK A01 T03390212  RH  048%=      5-min Rain = 0
KOD1 152026Z 14017KT 34/21 A2973 RMK A01 T03420210  RH  046%=      5-min Rain = 0
KOD1 152027Z 15016KT 34/21 A2973 RMK A01 T03410209  RH  046%=      5-min Rain = 0
KOD1 152028Z 15014KT 34/21 A2973 RMK A01 T03410211  RH  047%=      5-min Rain = 0
KOD1 152029Z 18013KT 34/22 A2973 RMK A01 T03410216  RH  048%=      5-min Rain = 0
KOD1 152030Z 16013KT 34/21 A2973 RMK A01 T03400212  RH  047%=      5-min Rain = 0
KOD1 152031Z 16014KT 34/21 A2973 RMK A01 T03380213  RH  048%=      5-min Rain = 0
KOD1 152032Z 16012G17KT 34/21 A2973 RMK A01 T03370214  RH  049%=      5-min Rain = 0
KOD1 152033Z 15016KT 34/21 A2973 RMK A01 T03390214  RH  048%=      5-min Rain = 0
KOD1 152034Z 16015KT 34/21 A2973 RMK A01 T03390213  RH  048%=      5-min Rain = 0
KOD1 152035Z 16013KT 34/22 A2973 RMK A01 T03390215  RH  049%=      5-min Rain = 0
KOD1 152036Z 17015KT 34/22 A2974 RMK A01 T03410218  RH  049%=      5-min Rain = 0
KOD1 152037Z 17017KT 34/22 A2974 RMK A01 T03400216  RH  049%=      5-min Rain = 0
KOD1 152038Z 17016KT 34/22 A2974 RMK A01 T03370215  RH  049%=      5-min Rain = 0
KOD1 152039Z 17015KT 34/22 A2974 RMK A01 T03370217  RH  050%=      5-min Rain = 0
KOD1 152040Z 17014KT 34/22 A2974 RMK A01 T03370216  RH  049%=      5-min Rain = 0
KOD1 152041Z 17015KT 34/22 A2974 RMK A01 T03370218  RH  050%=      5-min Rain = 0
KOD1 152042Z 17014KT 34/21 A2974 RMK A01 T03370214  RH  048%=      5-min Rain = 0
KOD1 152043Z 17013KT 34/22 A2974 RMK A01 T03370215  RH  049%=      5-min Rain = 0
KOD1 152044Z 17014KT 34/22 A2973 RMK A01 T03370218  RH  050%=      5-min Rain = 0
KOD1 152045Z 15013KT 34/22 A2974 RMK A01 T03390219  RH  050%=      5-min Rain = 0
KOD1 152046Z 15015KT 34/21 A2974 RMK A01 T03420214  RH  047%=      5-min Rain = 0
KOD1 152047Z 14011KT 34/21 A2973 RMK A01 T03410214  RH  048%=      5-min Rain = 0
KOD1 152048Z 14012KT 34/21 A2973 RMK A01 T03420214  RH  047%=      5-min Rain = 0
KOD1 152049Z 15017KT 34/21 A2973 RMK A01 T03440213  RH  047%=      5-min Rain = 0
KOD1 152050Z 16016KT 34/22 A2973 RMK A01 T03430217  RH  048%=      5-min Rain = 0
KOD1 152051Z 17013KT 34/22 A2973 RMK A01 T03430215  RH  047%=      5-min Rain = 0
KOD1 152052Z 16013KT 34/22 A2973 RMK A01 T03410220  RH  049%=      5-min Rain = 0
KOD1 152053Z 15012KT 34/22 A2974 RMK A01 T03420216  RH  048%=      5-min Rain = 0
KOD1 152054Z 15012KT 34/21 A2973 RMK A01 T03410213  RH  047%=      5-min Rain = 0
KOD1 152055Z 15009KT 34/22 A2973 RMK A01 T03420215  RH  048%=      5-min Rain = 0
KOD1 152056Z 15011G18KT 34/22 A2973 RMK A01 T03440219  RH  048%=      5-min Rain = 0
KOD1 152057Z 16015KT 34/22 A2973 RMK A01 T03440219  RH  048%=      5-min Rain = 0
KOD1 152058Z 16011KT 34/22 A2973 RMK A01 T03410218  RH  049%=      5-min Rain = 0
KOD1 152059Z 16014KT 34/22 A2973 RMK A01 T03410221  RH  050%=      5-min Rain = 0
KOD1 152100Z 15011KT 34/22 A2973 RMK A01 T03400216  RH  048%=      5-min Rain = 0
KOD1 152101Z 14011KT 34/22 A2973 RMK A01 T03400217  RH  049%=      5-min Rain = 0
KOD1 152102Z 15009KT 34/22 A2973 RMK A01 T03410219  RH  049%=      5-min Rain = 0
KOD1 152103Z 14012KT 34/22 A2973 RMK A01 T03430221  RH  049%=      5-min Rain = 0
KOD1 152104Z 15013G18KT 35/22 A2973 RMK A01 T03460224  RH  049%=      5-min Rain = 0
KOD1 152105Z 16015KT 35/22 A2973 RMK A01 T03480220  RH  047%=      5-min Rain = 0
KOD1 152106Z 16015KT 34/22 A2973 RMK A01 T03440216  RH  047%=      5-min Rain = 0
KOD1 152107Z 15014KT 34/22 A2973 RMK A01 T03420219  RH  049%=      5-min Rain = 0
KOD1 152108Z 15012KT 34/22 A2973 RMK A01 T03420216  RH  048%=      5-min Rain = 0
KOD1 152109Z 14013KT 34/22 A2973 RMK A01 T03420218  RH  049%=      5-min Rain = 0
KOD1 152110Z 15016KT 34/22 A2973 RMK A01 T03440220  RH  049%=      5-min Rain = 0
KOD1 152111Z 16014KT 35/22 A2973 RMK A01 T03450222  RH  049%=      5-min Rain = 0
KOD1 152112Z 14013KT 35/22 A2973 RMK A01 T03450220  RH  048%=      5-min Rain = 0
KOD1 152113Z 16019KT 35/22 A2973 RMK A01 T03450219  RH  048%=      5-min Rain = 0
KOD1 152114Z 17016KT 34/22 A2973 RMK A01 T03420217  RH  048%=      5-min Rain = 0
KOD1 152115Z 16015KT 34/22 A2973 RMK A01 T03390219  RH  050%=      5-min Rain = 0
KOD1 152116Z 15015KT 34/22 A2973 RMK A01 T03400218  RH  049%=      5-min Rain = 0
KOD1 152117Z 15019KT 34/21 A2973 RMK A01 T03410214  RH  048%=      5-min Rain = 0
KOD1 152118Z 17014KT 34/22 A2973 RMK A01 T03410218  RH  049%=      5-min Rain = 0
KOD1 152119Z 17016KT 34/22 A2973 RMK A01 T03400220  RH  050%=      5-min Rain = 0
KOD1 152120Z 17016KT 34/22 A2973 RMK A01 T03390216  RH  049%=      5-min Rain = 0
KOD1 152121Z 17016KT 34/22 A2973 RMK A01 T03370217  RH  050%=      5-min Rain = 0
KOD1 152122Z 15014KT 34/22 A2973 RMK A01 T03360215  RH  049%=      5-min Rain = 0
KOD1 152123Z 15014KT 34/21 A2973 RMK A01 T03380214  RH  048%=      5-min Rain = 0
KOD1 152124Z 15013KT 34/22 A2973 RMK A01 T03390216  RH  049%=      5-min Rain = 0
KOD1 152125Z 15014KT 34/22 A2973 RMK A01 T03390215  RH  048%=      5-min Rain = 0
KOD1 152126Z 15011KT 34/22 A2973 RMK A01 T03400218  RH  049%=      5-min Rain = 0
KOD1 152127Z 15016KT 34/22 A2973 RMK A01 T03420220  RH  049%=      5-min Rain = 0
KOD1 152128Z 14016KT 34/22 A2973 RMK A01 T03410216  RH  048%=      5-min Rain = 0
KOD1 152129Z 14017KT 34/21 A2973 RMK A01 T03420214  RH  047%=      5-min Rain = 0
KOD1 152130Z 14018KT 34/21 A2973 RMK A01 T03420213  RH  047%=      5-min Rain = 0
KOD1 152131Z 17016G21KT 34/22 A2972 RMK A01 T03410215  RH  048%=      5-min Rain = 0
KOD1 152132Z 14013KT 34/22 A2972 RMK A01 T03410219  RH  049%=      5-min Rain = 0
KOD1 152133Z 15014KT 34/22 A2972 RMK A01 T03440215  RH  047%=      5-min Rain = 0
KOD1 152134Z 13014KT 34/22 A2972 RMK A01 T03440215  RH  047%=      5-min Rain = 0
KOD1 152135Z 15014KT 34/22 A2972 RMK A01 T03440216  RH  047%=      5-min Rain = 0
KOD1 152136Z 14014KT 34/22 A2972 RMK A01 T03440215  RH  047%=      5-min Rain = 0
KOD1 152137Z 14013G18KT 35/22 A2972 RMK A01 T03450217  RH  047%=      5-min Rain = 0
KOD1 152138Z 14015KT 35/21 A2972 RMK A01 T03450213  RH  046%=      5-min Rain = 0
KOD1 152139Z 13014KT 35/21 A2972 RMK A01 T03450214  RH  047%=      5-min Rain = 0
KOD1 152140Z 14012KT 35/22 A2972 RMK A01 T03450216  RH  047%=      5-min Rain = 0
KOD1 152141Z 14012KT 35/22 A2972 RMK A01 T03460220  RH  048%=      5-min Rain = 0
KOD1 152142Z 15012KT 35/22 A2972 RMK A01 T03480223  RH  048%=      5-min Rain = 0
KOD1 152143Z 15016KT 35/22 A2972 RMK A01 T03470217  RH  047%=      5-min Rain = 0
KOD1 152144Z 16016KT 35/22 A2972 RMK A01 T03450216  RH  047%=      5-min Rain = 0
KOD1 152145Z 17015KT 34/22 A2972 RMK A01 T03420216  RH  048%=      5-min Rain = 0
KOD1 152146Z 17012KT 34/22 A2972 RMK A01 T03410221  RH  050%=      5-min Rain = 0
KOD1 152147Z 16014KT 34/22 A2972 RMK A01 T03410221  RH  050%=      5-min Rain = 0
KOD1 152148Z 15013KT 34/22 A2972 RMK A01 T03410215  RH  048%=      5-min Rain = 0
KOD1 152149Z 15014KT 34/21 A2972 RMK A01 T03420214  RH  047%=      5-min Rain = 0
KOD1 152150Z 14012KT 34/22 A2972 RMK A01 T03430215  RH  048%=      5-min Rain = 0
KOD1 152151Z 14014KT 34/22 A2972 RMK A01 T03440216  RH  048%=      5-min Rain = 0
KOD1 152152Z 13017G22KT 34/21 A2972 RMK A01 T03440213  RH  047%=      5-min Rain = 0
KOD1 152153Z 16014G19KT 35/22 A2972 RMK A01 T03450220  RH  048%=      5-min Rain = 0
KOD1 152154Z 16014KT 34/22 A2972 RMK A01 T03440222  RH  049%=      5-min Rain = 0
KOD1 152155Z 15017KT 34/22 A2972 RMK A01 T03440222  RH  049%=      5-min Rain = 0
KOD1 152156Z 15017KT 34/22 A2972 RMK A01 T03440217  RH  047%=      5-min Rain = 0
KOD1 152157Z 16019KT 34/22 A2972 RMK A01 T03420219  RH  049%=      5-min Rain = 0
KOD1 152158Z 15018KT 34/22 A2972 RMK A01 T03410216  RH  048%=      5-min Rain = 0
KOD1 152159Z 15018KT 34/22 A2972 RMK A01 T03410215  RH  048%=      5-min Rain = 0
KOD1 152200Z 15018KT 34/22 A2972 RMK A01 T03430218  RH  048%=      5-min Rain = 0
KOD1 152201Z 14015KT 34/22 A2972 RMK A01 T03440219  RH  048%=      5-min Rain = 0
KOD1 152202Z 14018KT 34/22 A2972 RMK A01 T03440215  RH  047%=      5-min Rain = 0
KOD1 152203Z 14016KT 34/21 A2972 RMK A01 T03420214  RH  047%=      5-min Rain = 0
KOD1 152204Z 14013G18KT 34/22 A2972 RMK A01 T03410216  RH  048%=      5-min Rain = 0
KOD1 152205Z 14013KT 34/22 A2972 RMK A01 T03430221  RH  049%=      5-min Rain = 0
KOD1 152206Z 14016KT 34/22 A2972 RMK A01 T03440220  RH  048%=      5-min Rain = 0
KOD1 152207Z 14014KT 34/22 A2972 RMK A01 T03440219  RH  048%=      5-min Rain = 0
KOD1 152208Z 15016KT 34/22 A2972 RMK A01 T03430219  RH  048%=      5-min Rain = 0
KOD1 152209Z 14015KT 34/22 A2972 RMK A01 T03430220  RH  049%=      5-min Rain = 0
KOD1 152210Z 14018KT 34/22 A2972 RMK A01 T03420217  RH  048%=      5-min Rain = 0
KOD1 152211Z 13018KT 34/22 A2972 RMK A01 T03410217  RH  048%=      5-min Rain = 0
KOD1 152212Z 13016KT 34/22 A2972 RMK A01 T03410218  RH  049%=      5-min Rain = 0
KOD1 152213Z 14019KT 34/22 A2972 RMK A01 T03430218  RH  048%=      5-min Rain = 0
KOD1 152214Z 14014G19KT 34/22 A2972 RMK A01 T03430220  RH  049%=      5-min Rain = 0
KOD1 152215Z 16016KT 34/22 A2972 RMK A01 T03440222  RH  049%=      5-min Rain = 0
KOD1 152216Z 16015KT 34/22 A2972 RMK A01 T03420221  RH  049%=      5-min Rain = 0
KOD1 152217Z 14012KT 34/22 A2972 RMK A01 T03410222  RH  050%=      5-min Rain = 0
KOD1 152218Z 14013KT 34/22 A2972 RMK A01 T03420223  RH  050%=      5-min Rain = 0
KOD1 152219Z 14014KT 34/22 A2972 RMK A01 T03440222  RH  049%=      5-min Rain = 0
KOD1 152220Z 16016KT 34/22 A2972 RMK A01 T03440220  RH  048%=      5-min Rain = 0
KOD1 152221Z 15017KT 34/22 A2972 RMK A01 T03420219  RH  049%=      5-min Rain = 0
KOD1 152222Z 15014KT 34/22 A2972 RMK A01 T03410218  RH  049%=      5-min Rain = 0
KOD1 152223Z 15017KT 34/22 A2971 RMK A01 T03410221  RH  050%=      5-min Rain = 0
KOD1 152224Z 14015KT 34/22 A2972 RMK A01 T03410219  RH  049%=      5-min Rain = 0
KOD1 152225Z 14015KT 34/22 A2972 RMK A01 T03420220  RH  049%=      5-min Rain = 0
KOD1 152226Z 14016KT 34/22 A2972 RMK A01 T03420218  RH  048%=      5-min Rain = 0
KOD1 152227Z 14014KT 34/22 A2971 RMK A01 T03400217  RH  049%=      5-min Rain = 0
KOD1 152228Z 14011KT 34/22 A2971 RMK A01 T03410221  RH  050%=      5-min Rain = 0
KOD1 152229Z 15011KT 34/23 A2971 RMK A01 T03430225  RH  050%=      5-min Rain = 0
KOD1 152230Z 14014KT 35/23 A2971 RMK A01 T03450225  RH  050%=      5-min Rain = 0
KOD1 152231Z 16014KT 35/23 A2971 RMK A01 T03450225  RH  050%=      5-min Rain = 0
KOD1 152232Z 16015KT 34/22 A2971 RMK A01 T03430223  RH  050%=      5-min Rain = 0
KOD1 152233Z 15015KT 34/23 A2971 RMK A01 T03410225  RH  051%=      5-min Rain = 0
KOD1 152234Z 14016KT 34/22 A2971 RMK A01 T03400219  RH  049%=      5-min Rain = 0
KOD1 152235Z 14012KT 34/22 A2971 RMK A01 T03410222  RH  050%=      5-min Rain = 0
KOD1 152236Z 13014KT 34/22 A2971 RMK A01 T03430222  RH  049%=      5-min Rain = 0
KOD1 152237Z 14014KT 35/22 A2971 RMK A01 T03460223  RH  049%=      5-min Rain = 0
KOD1 152238Z 14014KT 35/22 A2971 RMK A01 T03470222  RH  048%=      5-min Rain = 0
KOD1 152239Z 16016KT 35/22 A2971 RMK A01 T03460223  RH  049%=      5-min Rain = 0
KOD1 152240Z 15015KT 34/22 A2971 RMK A01 T03430219  RH  048%=      5-min Rain = 0
KOD1 152241Z 14015KT 34/22 A2971 RMK A01 T03410219  RH  049%=      5-min Rain = 0
KOD1 152242Z 15014KT 34/22 A2971 RMK A01 T03390217  RH  049%=      5-min Rain = 0
KOD1 152243Z 14014G19KT 34/22 A2971 RMK A01 T03370218  RH  050%=      5-min Rain = 0
KOD1 152244Z 14017KT 34/22 A2971 RMK A01 T03360216  RH  049%=      5-min Rain = 0
KOD1 152245Z 14014KT 34/22 A2971 RMK A01 T03360217  RH  050%=      5-min Rain = 0
KOD1 152246Z 14016KT 34/22 A2971 RMK A01 T03360218  RH  050%=      5-min Rain = 0
KOD1 152247Z 14016KT 34/22 A2971 RMK A01 T03380218  RH  050%=      5-min Rain = 0
KOD1 152248Z 14015KT 34/22 A2971 RMK A01 T03380217  RH  049%=      5-min Rain = 0
KOD1 152249Z 14012KT 34/22 A2971 RMK A01 T03390220  RH  050%=      5-min Rain = 0
KOD1 152250Z 14015KT 34/22 A2971 RMK A01 T03390220  RH  050%=      5-min Rain = 0
KOD1 152251Z 15015G20KT 34/22 A2971 RMK A01 T03390221  RH  050%=      5-min Rain = 0
KOD1 152252Z 15016KT 34/22 A2971 RMK A01 T03380220  RH  050%=      5-min Rain = 0
KOD1 152253Z 14015KT 34/22 A2971 RMK A01 T03360219  RH  050%=      5-min Rain = 0
KOD1 152254Z 14014KT 34/22 A2971 RMK A01 T03350220  RH  051%=      5-min Rain = 0
KOD1 152255Z 15015KT 33/22 A2971 RMK A01 T03340221  RH  051%=      5-min Rain = 0
KOD1 152256Z 15016KT 33/22 A2971 RMK A01 T03320219  RH  051%=      5-min Rain = 0
KOD1 152257Z 15015KT 33/22 A2971 RMK A01 T03310220  RH  052%=      5-min Rain = 0
KOD1 152258Z 14014KT 33/22 A2971 RMK A01 T03300219  RH  052%=      5-min Rain = 0
KOD1 152259Z 15016KT 33/22 A2971 RMK A01 T03300217  RH  052%=      5-min Rain = 0
KOD1 152300Z 14014KT 33/22 A2971 RMK A01 T03300216  RH  051%=      5-min Rain = 0
KOD1 152301Z 15014KT 33/22 A2971 RMK A01 T03300219  RH  052%=      5-min Rain = 0
KOD1 152302Z 15017KT 33/22 A2971 RMK A01 T03290217  RH  052%=      5-min Rain = 0
KOD1 152303Z 14017KT 33/22 A2971 RMK A01 T03290215  RH  051%=      5-min Rain = 0
KOD1 152304Z 15015KT 33/22 A2971 RMK A01 T03290216  RH  052%=      5-min Rain = 0
KOD1 152305Z 15017KT 33/22 A2971 RMK A01 T03280216  RH  052%=      5-min Rain = 0
KOD1 152306Z 15016KT 33/22 A2971 RMK A01 T03280215  RH  052%=      5-min Rain = 0
KOD1 152307Z 14015KT 33/21 A297 RMK A01 T03270214  RH  051%=      5-min Rain = 0
KOD1 152308Z 15014G19KT 33/22 A297 RMK A01 T03280215  RH  052%=      5-min Rain = 0
KOD1 152309Z 14014KT 33/22 A297 RMK A01 T03270216  RH  052%=      5-min Rain = 0
KOD1 152310Z 15017KT 33/22 A297 RMK A01 T03280215  RH  052%=      5-min Rain = 0
KOD1 152311Z 15014KT 33/22 A297 RMK A01 T03270215  RH  052%=      5-min Rain = 0
KOD1 152312Z 14012KT 33/22 A297 RMK A01 T03270217  RH  052%=      5-min Rain = 0
KOD1 152313Z 14014KT 33/22 A297 RMK A01 T03270216  RH  052%=      5-min Rain = 0
KOD1 152314Z 15013KT 33/21 A297 RMK A01 T03280214  RH  051%=      5-min Rain = 0
KOD1 152315Z 14014KT 33/22 A2971 RMK A01 T03280216  RH  052%=      5-min Rain = 0
KOD1 152316Z 14013KT 33/22 A2971 RMK A01 T03280216  RH  052%=      5-min Rain = 0
KOD1 152317Z 14011KT 33/22 A2971 RMK A01 T03290218  RH  052%=      5-min Rain = 0
KOD1 152318Z 14011KT 33/22 A2971 RMK A01 T03290220  RH  053%=      5-min Rain = 0
KOD1 152319Z 14010KT 33/22 A2971 RMK A01 T03280221  RH  054%=      5-min Rain = 0
KOD1 152320Z 14013KT 33/22 A2971 RMK A01 T03270219  RH  053%=      5-min Rain = 0
KOD1 152321Z 15014KT 33/22 A2971 RMK A01 T03270218  RH  053%=      5-min Rain = 0
KOD1 152322Z 14014KT 33/22 A2971 RMK A01 T03260217  RH  053%=      5-min Rain = 0
KOD1 152323Z 14013KT 33/22 A2971 RMK A01 T03260217  RH  053%=      5-min Rain = 0
KOD1 152324Z 14016KT 33/22 A2971 RMK A01 T03260216  RH  052%=      5-min Rain = 0
KOD1 152325Z 14012KT 33/22 A2971 RMK A01 T03260217  RH  053%=      5-min Rain = 0
KOD1 152326Z 14013KT 33/22 A2971 RMK A01 T03260216  RH  052%=      5-min Rain = 0
KOD1 152327Z 14011KT 33/22 A2971 RMK A01 T03260217  RH  053%=      5-min Rain = 0
KOD1 152328Z 14013KT 33/22 A2971 RMK A01 T03260217  RH  053%=      5-min Rain = 0
KOD1 152329Z 14014KT 33/22 A2971 RMK A01 T03260216  RH  052%=      5-min Rain = 0
KOD1 152330Z 14012KT 33/22 A2971 RMK A01 T03250217  RH  053%=      5-min Rain = 0
KOD1 152331Z 15012KT 33/22 A2971 RMK A01 T03250216  RH  053%=      5-min Rain = 0
KOD1 152332Z 14012KT 33/22 A2971 RMK A01 T03250217  RH  053%=      5-min Rain = 0
KOD1 152333Z 15015KT 32/22 A2971 RMK A01 T03240216  RH  053%=      5-min Rain = 0
KOD1 152334Z 15014KT 32/22 A2971 RMK A01 T03240216  RH  053%=      5-min Rain = 0
KOD1 152335Z 14014KT 32/22 A2971 RMK A01 T03240215  RH  053%=      5-min Rain = 0
KOD1 152336Z 13011KT 32/22 A2971 RMK A01 T03240217  RH  053%=      5-min Rain = 0
KOD1 152337Z 14011KT 32/22 A2971 RMK A01 T03240217  RH  053%=      5-min Rain = 0
KOD1 152338Z 13012KT 32/22 A297 RMK A01 T03240218  RH  054%=      5-min Rain = 0
KOD1 152339Z 14011KT 32/22 A297 RMK A01 T03230217  RH  054%=      5-min Rain = 0
KOD1 152340Z 14013KT 32/22 A297 RMK A01 T03230218  RH  054%=      5-min Rain = 0
KOD1 152341Z 13013KT 32/22 A297 RMK A01 T03230217  RH  054%=      5-min Rain = 0
KOD1 152342Z 13013KT 32/22 A297 RMK A01 T03230217  RH  053%=      5-min Rain = 0
KOD1 152343Z 14011KT 32/22 A297 RMK A01 T03240218  RH  054%=      5-min Rain = 0
KOD1 152344Z 13012KT 32/22 A297 RMK A01 T03240217  RH  054%=      5-min Rain = 0
KOD1 152345Z 14012KT 32/22 A297 RMK A01 T03240217  RH  053%=      5-min Rain = 0
KOD1 152346Z 15011KT 32/22 A297 RMK A01 T03240218  RH  054%=      5-min Rain = 0
KOD1 152347Z 14012KT 32/22 A297 RMK A01 T03230218  RH  054%=      5-min Rain = 0
KOD1 152348Z 15012KT 32/22 A297 RMK A01 T03230218  RH  054%=      5-min Rain = 0
KOD1 152349Z 14013KT 32/22 A297 RMK A01 T03230218  RH  054%=      5-min Rain = 0
KOD1 152350Z 15011KT 32/22 A297 RMK A01 T03230219  RH  054%=      5-min Rain = 0
KOD1 152351Z 14010KT 32/22 A297 RMK A01 T03220220  RH  055%=      5-min Rain = 0
KOD1 152352Z 15011KT 32/22 A297 RMK A01 T03220220  RH  055%=      5-min Rain = 0
KOD1 152353Z 14013KT 32/22 A297 RMK A01 T03220219  RH  055%=      5-min Rain = 0
KOD1 152354Z 15013KT 32/22 A297 RMK A01 T03220218  RH  054%=      5-min Rain = 0
KOD1 152355Z 15013KT 32/22 A297 RMK A01 T03220217  RH  054%=      5-min Rain = 0
KOD1 152356Z 15011KT 32/22 A297 RMK A01 T03220218  RH  054%=      5-min Rain = 0
KOD1 152357Z 15011KT 32/22 A297 RMK A01 T03210220  RH  055%=      5-min Rain = 0
KOD1 152358Z 14010KT 32/22 A297 RMK A01 T03200221  RH  056%=      5-min Rain = 0
KOD1 152359Z 15013KT 32/22 A297 RMK A01 T03200219  RH  055%=      5-min Rain = 0
KOD1 160000Z 14011KT 32/22 A297 RMK A01 T03200218  RH  055%=      5-min Rain = 0
KOD1 160001Z 14012KT 32/22 A297 RMK A01 T03200217  RH  055%=      5-min Rain = 0
KOD1 160002Z 14014G19KT 32/22 A297 RMK A01 T03200218  RH  055%=      5-min Rain = 0
KOD1 160003Z 15013KT 32/22 A297 RMK A01 T03200216  RH  054%=      5-min Rain = 0
KOD1 160004Z 15011KT 32/22 A297 RMK A01 T03200217  RH  055%=      5-min Rain = 0
KOD1 160005Z 15009KT 32/22 A297 RMK A01 T03190219  RH  055%=      5-min Rain = 0
KOD1 160006Z 14012KT 32/22 A297 RMK A01 T03180217  RH  055%=      5-min Rain = 0
KOD1 160007Z 15013KT 32/22 A297 RMK A01 T03180216  RH  055%=      5-min Rain = 0
KOD1 160008Z 14012KT 32/22 A297 RMK A01 T03190216  RH  055%=      5-min Rain = 0
KOD1 160009Z 15014KT 32/22 A297 RMK A01 T03190216  RH  054%=      5-min Rain = 0
KOD1 160010Z 15015KT 32/22 A297 RMK A01 T03180216  RH  055%=      5-min Rain = 0
KOD1 160011Z 15014KT 32/22 A297 RMK A01 T03180217  RH  055%=      5-min Rain = 0
KOD1 160012Z 15012KT 32/22 A297 RMK A01 T03180217  RH  055%=      5-min Rain = 0
KOD1 160013Z 15015KT 32/22 A297 RMK A01 T03180217  RH  055%=      5-min Rain = 0
KOD1 160014Z 15013KT 32/22 A297 RMK A01 T03170218  RH  056%=      5-min Rain = 0
KOD1 160015Z 15012KT 32/22 A297 RMK A01 T03160218  RH  056%=      5-min Rain = 0
KOD1 160016Z 15012G18KT 32/22 A2971 RMK A01 T03160219  RH  057%=      5-min Rain = 0
KOD1 160017Z 16016KT 32/22 A2971 RMK A01 T03150215  RH  055%=      5-min Rain = 0
KOD1 160018Z 16015KT 32/22 A2971 RMK A01 T03160215  RH  055%=      5-min Rain = 0
KOD1 160019Z 16014KT 32/22 A2971 RMK A01 T03160216  RH  055%=      5-min Rain = 0
KOD1 160020Z 16015KT 32/22 A2971 RMK A01 T03160216  RH  055%=      5-min Rain = 0
KOD1 160021Z 16015KT 32/22 A2971 RMK A01 T03150215  RH  055%=      5-min Rain = 0
KOD1 160022Z 15014KT 32/22 A2971 RMK A01 T03150215  RH  055%=      5-min Rain = 0
KOD1 160023Z 15014KT 32/21 A2971 RMK A01 T03150214  RH  055%=      5-min Rain = 0
KOD1 160024Z 15015KT 32/21 A2971 RMK A01 T03160213  RH  054%=      5-min Rain = 0
KOD1 160025Z 16014KT 32/21 A2971 RMK A01 T03160213  RH  054%=      5-min Rain = 0
KOD1 160026Z 15013KT 32/21 A2971 RMK A01 T03160213  RH  055%=      5-min Rain = 0
KOD1 160027Z 16013KT 32/21 A2971 RMK A01 T03150214  RH  055%=      5-min Rain = 0
KOD1 160028Z 16013KT 32/21 A2971 RMK A01 T03150213  RH  055%=      5-min Rain = 0
KOD1 160029Z 16014KT 32/21 A2971 RMK A01 T03150213  RH  055%=      5-min Rain = 0
KOD1 160030Z 16012KT 32/21 A2971 RMK A01 T03150213  RH  055%=      5-min Rain = 0
KOD1 160031Z 16014KT 32/21 A2971 RMK A01 T03150212  RH  055%=      5-min Rain = 0
KOD1 160032Z 15011KT 32/21 A2971 RMK A01 T03150214  RH  055%=      5-min Rain = 0
KOD1 160033Z 15014KT 31/21 A2971 RMK A01 T03140213  RH  055%=      5-min Rain = 0
KOD1 160034Z 15013KT 31/21 A2971 RMK A01 T03140213  RH  055%=      5-min Rain = 0
KOD1 160035Z 16013KT 31/21 A2971 RMK A01 T03140213  RH  055%=      5-min Rain = 0
KOD1 160036Z 15013KT 31/21 A2971 RMK A01 T03140213  RH  055%=      5-min Rain = 0
KOD1 160037Z 16011KT 31/21 A2971 RMK A01 T03130214  RH  056%=      5-min Rain = 0
KOD1 160038Z 15010KT 31/21 A2971 RMK A01 T03130214  RH  056%=      5-min Rain = 0
KOD1 160039Z 15011KT 31/21 A2971 RMK A01 T03120214  RH  056%=      5-min Rain = 0
KOD1 160040Z 15011KT 31/21 A2971 RMK A01 T03120213  RH  056%=      5-min Rain = 0
KOD1 160041Z 15012KT 31/21 A2971 RMK A01 T03130212  RH  055%=      5-min Rain = 0
KOD1 160042Z 15013KT 31/21 A2971 RMK A01 T03130213  RH  055%=      5-min Rain = 0
KOD1 160043Z 15012KT 31/21 A2971 RMK A01 T03130212  RH  055%=      5-min Rain = 0
KOD1 160044Z 15012KT 31/21 A2971 RMK A01 T03130212  RH  055%=      5-min Rain = 0
KOD1 160045Z 15013KT 31/21 A2971 RMK A01 T03140211  RH  054%=      5-min Rain = 0
KOD1 160046Z 15013KT 31/21 A2971 RMK A01 T03140211  RH  054%=      5-min Rain = 0
KOD1 160047Z 15011KT 31/21 A2971 RMK A01 T03140212  RH  055%=      5-min Rain = 0
KOD1 160048Z 15014KT 31/21 A2971 RMK A01 T03130212  RH  055%=      5-min Rain = 0
KOD1 160049Z 15012KT 31/21 A2971 RMK A01 T03130212  RH  055%=      5-min Rain = 0
KOD1 160050Z 15013KT 31/21 A2971 RMK A01 T03120213  RH  056%=      5-min Rain = 0
KOD1 160051Z 15013KT 31/21 A2971 RMK A01 T03120212  RH  055%=      5-min Rain = 0
KOD1 160052Z 15012KT 31/21 A2971 RMK A01 T03120212  RH  056%=      5-min Rain = 0
KOD1 160053Z 15012KT 31/21 A2971 RMK A01 T03110213  RH  056%=      5-min Rain = 0
KOD1 160054Z 15011KT 31/21 A2971 RMK A01 T03100214  RH  057%=      5-min Rain = 0
KOD1 160055Z 15013KT 31/21 A2971 RMK A01 T03090213  RH  057%=      5-min Rain = 0
KOD1 160056Z 16011G16KT 31/21 A2971 RMK A01 T03080214  RH  057%=      5-min Rain = 0
KOD1 160057Z 16012KT 31/21 A2971 RMK A01 T03080213  RH  057%=      5-min Rain = 0
KOD1 160058Z 15012KT 31/21 A2971 RMK A01 T03080213  RH  057%=      5-min Rain = 0
KOD1 160059Z 16013KT 31/21 A2971 RMK A01 T03080212  RH  057%=      5-min Rain = 0
KOD1 160100Z 15014KT 31/21 A2971 RMK A01 T03080211  RH  056%=      5-min Rain = 0
KOD1 160101Z 16013KT 31/21 A2971 RMK A01 T03090211  RH  056%=      5-min Rain = 0
KOD1 160102Z 15012KT 31/21 A2971 RMK A01 T03090212  RH  057%=      5-min Rain = 0
KOD1 160103Z 16014KT 31/21 A2971 RMK A01 T03080213  RH  057%=      5-min Rain = 0
KOD1 160104Z 15014KT 31/21 A2971 RMK A01 T03070211  RH  057%=      5-min Rain = 0
KOD1 160105Z 15014KT 31/21 A2971 RMK A01 T03090211  RH  056%=      5-min Rain = 0
KOD1 160106Z 15012KT 31/21 A2971 RMK A01 T03080212  RH  056%=      5-min Rain = 0
KOD1 160107Z 15012KT 31/21 A2971 RMK A01 T03080213  RH  057%=      5-min Rain = 0
KOD1 160108Z 15012KT 31/21 A2971 RMK A01 T03080212  RH  057%=      5-min Rain = 0
KOD1 160109Z 15012KT 31/21 A2971 RMK A01 T03070213  RH  057%=      5-min Rain = 0
KOD1 160110Z 15012KT 31/21 A2971 RMK A01 T03070214  RH  058%=      5-min Rain = 0
KOD1 160111Z 16012KT 31/21 A2971 RMK A01 T03060214  RH  058%=      5-min Rain = 0
KOD1 160112Z 15013KT 31/21 A2971 RMK A01 T03050214  RH  058%=      5-min Rain = 0
KOD1 160113Z 15013KT 31/21 A2971 RMK A01 T03050213  RH  058%=      5-min Rain = 0
KOD1 160114Z 15012KT 31/21 A2971 RMK A01 T03050213  RH  058%=      5-min Rain = 0
KOD1 160115Z 15012KT 31/21 A2971 RMK A01 T03050214  RH  058%=      5-min Rain = 0
KOD1 160116Z 15012KT 31/21 A2971 RMK A01 T03050214  RH  058%=      5-min Rain = 0
KOD1 160117Z 15014KT 31/21 A2971 RMK A01 T03050214  RH  058%=      5-min Rain = 0
KOD1 160118Z 15013KT 31/21 A2971 RMK A01 T03050214  RH  058%=      5-min Rain = 0
KOD1 160119Z 16015KT 30/21 A2971 RMK A01 T03040214  RH  058%=      5-min Rain = 0
KOD1 160120Z 15013KT 30/21 A2971 RMK A01 T03040213  RH  058%=      5-min Rain = 0
KOD1 160121Z 16013KT 30/21 A2971 RMK A01 T03040214  RH  059%=      5-min Rain = 0
KOD1 160122Z 15013KT 30/21 A2971 RMK A01 T03040214  RH  059%=      5-min Rain = 0
KOD1 160123Z 16015KT 30/21 A2971 RMK A01 T03040214  RH  059%=      5-min Rain = 0
KOD1 160124Z 15015KT 30/21 A2971 RMK A01 T03040214  RH  059%=      5-min Rain = 0
KOD1 160125Z 15015KT 30/21 A2971 RMK A01 T03040214  RH  059%=      5-min Rain = 0
KOD1 160126Z 15014KT 30/21 A2971 RMK A01 T03040214  RH  059%=      5-min Rain = 0
KOD1 160127Z 15015KT 30/21 A2971 RMK A01 T03040214  RH  059%=      5-min Rain = 0
KOD1 160128Z 15014KT 30/22 A2971 RMK A01 T03040215  RH  059%=      5-min Rain = 0
KOD1 160129Z 15013KT 30/22 A2971 RMK A01 T03040216  RH  059%=      5-min Rain = 0
KOD1 160130Z 15011KT 30/22 A2971 RMK A01 T03030216  RH  060%=      5-min Rain = 0
KOD1 160131Z 16012KT 30/22 A2971 RMK A01 T03030216  RH  060%=      5-min Rain = 0
KOD1 160132Z 16012KT 30/22 A2971 RMK A01 T03020216  RH  060%=      5-min Rain = 0
KOD1 160133Z 16012KT 30/22 A2972 RMK A01 T03020216  RH  060%=      5-min Rain = 0
KOD1 160134Z 16013KT 30/22 A2972 RMK A01 T03020216  RH  060%=      5-min Rain = 0
KOD1 160135Z 15013KT 30/22 A2972 RMK A01 T03020216  RH  060%=      5-min Rain = 0
KOD1 160136Z 16011KT 30/22 A2972 RMK A01 T03020217  RH  060%=      5-min Rain = 0
KOD1 160137Z 16011KT 30/22 A2972 RMK A01 T03010217  RH  061%=      5-min Rain = 0
KOD1 160138Z 16011KT 30/22 A2972 RMK A01 T03000217  RH  061%=      5-min Rain = 0
KOD1 160139Z 16010KT 30/22 A2972 RMK A01 T02990217  RH  061%=      5-min Rain = 0
KOD1 160140Z 15011KT 30/22 A2972 RMK A01 T02990217  RH  061%=      5-min Rain = 0
KOD1 160141Z 15011KT 30/22 A2972 RMK A01 T02990218  RH  062%=      5-min Rain = 0
KOD1 160142Z 15011KT 30/22 A2971 RMK A01 T02990217  RH  061%=      5-min Rain = 0
KOD1 160143Z 15011KT 30/22 A2971 RMK A01 T03000216  RH  061%=      5-min Rain = 0
KOD1 160144Z 16010KT 30/22 A2971 RMK A01 T03010218  RH  061%=      5-min Rain = 0
KOD1 160145Z 16009KT 30/22 A2971 RMK A01 T03000218  RH  062%=      5-min Rain = 0
KOD1 160146Z 15010KT 30/22 A2972 RMK A01 T02990218  RH  062%=      5-min Rain = 0
KOD1 160147Z 16009KT 30/22 A2972 RMK A01 T02990218  RH  062%=      5-min Rain = 0
KOD1 160148Z 15011KT 30/22 A2972 RMK A01 T02990218  RH  062%=      5-min Rain = 0
KOD1 160149Z 16011KT 30/22 A2972 RMK A01 T02990218  RH  062%=      5-min Rain = 0
KOD1 160150Z 16011KT 30/22 A2972 RMK A01 T02990218  RH  062%=      5-min Rain = 0
KOD1 160151Z 16010KT 30/22 A2972 RMK A01 T02990218  RH  062%=      5-min Rain = 0
KOD1 160152Z 17010KT 30/22 A2973 RMK A01 T02990218  RH  062%=      5-min Rain = 0
KOD1 160153Z 24011KT 30/22 A2975 RMK A01 T02990219  RH  062%=      5-min Rain = 0
KOD1 160154Z 27024G31KT 30/21 A2978 RMK A01 T02980214  RH  061%=      5-min Rain = 0
KOD1 160155Z 28028G34KT 29/16 A2979 RMK A01 T02880164  RH  047%=      5-min Rain = 0
KOD1 160156Z 28027G32KT 28/15 A2979 RMK A01 T02770151  RH  046%=      5-min Rain = 0
KOD1 160157Z 28023G29KT 27/15 A2979 RMK A01 T02700146  RH  046%=      5-min Rain = 0
KOD1 160158Z 28023KT 27/14 A2978 RMK A01 T02650141  RH  047%=      5-min Rain = 0
KOD1 160159Z 28021G26KT 26/14 A2978 RMK A01 T02610142  RH  048%=      5-min Rain = 0
KOD1 160200Z 29017KT 26/14 A2978 RMK A01 T02580144  RH  049%=      5-min Rain = 0
KOD1 160201Z 29014KT 26/14 A2978 RMK A01 T02570141  RH  049%=      5-min Rain = 0
KOD1 160202Z 27017KT 26/14 A2978 RMK A01 T02570141  RH  049%=      5-min Rain = 0
KOD1 160203Z 28020G27KT 26/14 A2978 RMK A01 T02560142  RH  049%=      5-min Rain = 0
KOD1 160204Z 28022G29KT 25/14 A2978 RMK A01 T02540139  RH  049%=      5-min Rain = 0
KOD1 160205Z 28023G28KT 25/14 A2977 RMK A01 T02540137  RH  048%=      5-min Rain = 0
KOD1 160206Z 28023G30KT 25/14 A2976 RMK A01 T02530138  RH  049%=      5-min Rain = 0
KOD1 160207Z 28027G34KT 25/14 A2977 RMK A01 T02520135  RH  048%=      5-min Rain = 0
KOD1 160208Z 29023G32KT 25/14 A2977 RMK A01 T02510136  RH  049%=      5-min Rain = 0
KOD1 160209Z 28024KT 25/14 A2977 RMK A01 T02480136  RH  050%=      5-min Rain = 0
KOD1 160210Z 28023G28KT 25/14 A2977 RMK A01 T02460138  RH  051%=      5-min Rain = 0
KOD1 160211Z 27022G28KT 25/14 A2977 RMK A01 T02450139  RH  052%=      5-min Rain = 0
KOD1 160212Z 28021G26KT 24/14 A2977 RMK A01 T02440138  RH  051%=      5-min Rain = 0
KOD1 160213Z 28022G29KT 24/14 A2978 RMK A01 T02430138  RH  052%=      5-min Rain = 0
KOD1 160214Z 27018G23KT 24/14 A2978 RMK A01 T02410140  RH  053%=      5-min Rain = 0
KOD1 160215Z 27019KT 24/14 A2979 RMK A01 T02380142  RH  055%=      5-min Rain = 0
KOD1 160216Z 27019G24KT 23/15 A298 RMK A01 T02340148  RH  058%=      5-min Rain = 0
KOD1 160217Z 27017G22KT 23/15 A298 RMK A01 T02280153  RH  063%=      5-min Rain = 0
KOD1 160218Z 27021KT 22/15 A298 RMK A01 T02210154  RH  065%=      5-min Rain = 0
KOD1 160219Z 27018G23KT 22/16 A298 RMK A01 T02170156  RH  069%=      5-min Rain = 0
KOD1 160220Z 26019KT 21/16 A298 RMK A01 T02140155  RH  069%=      5-min Rain = 0
KOD1 160221Z 26020G25KT 21/16 A298 RMK A01 T02110159  RH  072%=      5-min Rain = 0.01
KOD1 160222Z 26023G28KT 21/16 A2981 RMK A01 T02070159  RH  074%=      5-min Rain = 0.01
KOD1 160223Z 26021G26KT 20/16 A2983 RMK A01 T02020163  RH  078%=      5-min Rain = 0.03
KOD1 160224Z 25019KT 20/17 A2983 RMK A01 T01960165  RH  082%=      5-min Rain = 0.02
KOD1 160225Z 25018KT 19/17 A2984 RMK A01 T01940165  RH  083%=      5-min Rain = 0.03
KOD1 160226Z 27017KT 19/17 A2985 RMK A01 T01920167  RH  085%=      5-min Rain = 0.02
KOD1 160227Z 28015G20KT 19/17 A2985 RMK A01 T01910166  RH  085%=      5-min Rain = 0.03
KOD1 160228Z 27017KT 19/16 A2985 RMK A01 T01890164  RH  085%=      5-min Rain = 0.04
KOD1 160229Z 25014KT 19/16 A2985 RMK A01 T01880164  RH  086%=      5-min Rain = 0.04
KOD1 160230Z 26011KT 19/17 A2984 RMK A01 T01860165  RH  088%=      5-min Rain = 0.03
KOD1 160231Z 25015KT 18/17 A2985 RMK A01 T01840165  RH  088%=      5-min Rain = 0.02
KOD1 160232Z 25013KT 18/17 A2985 RMK A01 T01840166  RH  089%=      5-min Rain = 0.02
KOD1 160233Z 25011KT 18/17 A2985 RMK A01 T01830166  RH  090%=      5-min Rain = 0.03
KOD1 160234Z 26009KT 18/17 A2985 RMK A01 T01820166  RH  090%=      5-min Rain = 0.02
KOD1 160235Z 27008KT 18/17 A2984 RMK A01 T01820167  RH  091%=      5-min Rain = 0.01
KOD1 160236Z 27006G11KT 18/17 A2984 RMK A01 T01810168  RH  092%=      5-min Rain = 0.01
KOD1 160237Z 27012KT 18/17 A2984 RMK A01 T01810168  RH  092%=      5-min Rain = 0
KOD1 160238Z 26013KT 18/17 A2984 RMK A01 T01840166  RH  089%=      5-min Rain = 0.01
KOD1 160239Z 27016KT 19/16 A2984 RMK A01 T01870163  RH  086%=      5-min Rain = 0.01
KOD1 160240Z 26014KT 19/16 A2983 RMK A01 T01890163  RH  084%=      5-min Rain = 0.01
KOD1 160241Z 26015KT 19/16 A2983 RMK A01 T01910163  RH  084%=      5-min Rain = 0
KOD1 160242Z 26013KT 19/16 A2983 RMK A01 T01920164  RH  084%=      5-min Rain = 0.01
KOD1 160243Z 26013KT 19/17 A2983 RMK A01 T01920165  RH  084%=      5-min Rain = 0.01
KOD1 160244Z 26013KT 19/17 A2984 RMK A01 T01910166  RH  085%=      5-min Rain = 0
KOD1 160245Z 25013KT 19/17 A2984 RMK A01 T01900167  RH  086%=      5-min Rain = 0.01
KOD1 160246Z 26011G16KT 19/17 A2984 RMK A01 T01900167  RH  086%=      5-min Rain = 0
KOD1 160247Z 27010KT 19/17 A2984 RMK A01 T01920166  RH  085%=      5-min Rain = 0.01
KOD1 160248Z 28010KT 19/17 A2983 RMK A01 T01920166  RH  085%=      5-min Rain = 0.01
KOD1 160249Z 28011KT 19/16 A2983 RMK A01 T01940162  RH  082%=      5-min Rain = 0
KOD1 160250Z 28007KT 20/16 A2983 RMK A01 T01950163  RH  082%=      5-min Rain = 0
KOD1 160251Z 28007KT 19/16 A2983 RMK A01 T01940164  RH  082%=      5-min Rain = 0.01
KOD1 160252Z 28007KT 20/16 A2983 RMK A01 T01950161  RH  081%=      5-min Rain = 0
KOD1 160253Z 28006KT 20/16 A2983 RMK A01 T01960162  RH  081%=      5-min Rain = 0
KOD1 160254Z 29005KT 20/16 A2982 RMK A01 T01950163  RH  082%=      5-min Rain = 0.01
KOD1 160255Z 30005KT 19/16 A2982 RMK A01 T01940163  RH  082%=      5-min Rain = 0
KOD1 160256Z 30006KT 19/16 A2982 RMK A01 T01940164  RH  082%=      5-min Rain = 0
KOD1 160257Z 31007KT 19/16 A2981 RMK A01 T01940164  RH  083%=      5-min Rain = 0
KOD1 160258Z 32006KT 19/17 A2981 RMK A01 T01940166  RH  083%=      5-min Rain = 0
KOD1 160259Z 31007KT 19/17 A298 RMK A01 T01940166  RH  084%=      5-min Rain = 0.01
KOD1 160300Z 31007KT 20/16 A298 RMK A01 T01950164  RH  082%=      5-min Rain = 0
KOD1 160301Z 31006KT 20/16 A2981 RMK A01 T01970164  RH  081%=      5-min Rain = 0
KOD1 160302Z 30004KT 20/17 A2981 RMK A01 T01980165  RH  081%=      5-min Rain = 0
KOD1 160303Z 29004KT 20/17 A2981 RMK A01 T01980168  RH  083%=      5-min Rain = 0
KOD1 160304Z 29004KT 20/17 A2982 RMK A01 T01980168  RH  083%=      5-min Rain = 0
KOD1 160305Z 29004KT 20/17 A2982 RMK A01 T01970168  RH  083%=      5-min Rain = 0
KOD1 160306Z 29003KT 20/17 A2982 RMK A01 T01980168  RH  083%=      5-min Rain = 0
KOD1 160307Z 32003KT 20/17 A2981 RMK A01 T01970167  RH  083%=      5-min Rain = 0
KOD1 160308Z 36003KT 20/17 A2981 RMK A01 T01980168  RH  083%=      5-min Rain = 0
KOD1 160309Z 01004KT 20/17 A2981 RMK A01 T01980168  RH  083%=      5-min Rain = 0
KOD1 160310Z 01004KT 20/17 A2981 RMK A01 T01980167  RH  082%=      5-min Rain = 0
KOD1 160311Z 01006KT 20/17 A2981 RMK A01 T01980167  RH  082%=      5-min Rain = 0
KOD1 160312Z 01006KT 20/17 A2981 RMK A01 T02000167  RH  082%=      5-min Rain = 0
KOD1 160313Z 00006KT 20/17 A2981 RMK A01 T02000171  RH  084%=      5-min Rain = 0
KOD1 160314Z 00006KT 20/17 A2982 RMK A01 T01990169  RH  083%=      5-min Rain = 0
KOD1 160315Z 01005KT 20/17 A2982 RMK A01 T02010168  RH  081%=      5-min Rain = 0
KOD1 160316Z 00004KT 20/17 A2982 RMK A01 T02020169  RH  081%=      5-min Rain = 0
KOD1 160317Z 02004KT 20/17 A2982 RMK A01 T02030172  RH  082%=      5-min Rain = 0
KOD1 160318Z 02005KT 20/18 A2982 RMK A01 T02020175  RH  085%=      5-min Rain = 0
KOD1 160319Z 02004KT 20/18 A2982 RMK A01 T02010177  RH  086%=      5-min Rain = 0
KOD1 160320Z 35001KT 20/18 A2983 RMK A01 T02000176  RH  086%=      5-min Rain = 0
KOD1 160321Z 16004KT 20/18 A2983 RMK A01 T02000177  RH  087%=      5-min Rain = 0
KOD1 160322Z 16007KT 20/18 A2983 RMK A01 T02010180  RH  087%=      5-min Rain = 0
KOD1 160323Z 14008KT 20/18 A2983 RMK A01 T02020181  RH  088%=      5-min Rain = 0
KOD1 160324Z 14007KT 20/18 A2983 RMK A01 T02040179  RH  085%=      5-min Rain = 0
KOD1 160325Z 13006KT 21/18 A2983 RMK A01 T02070176  RH  082%=      5-min Rain = 0
KOD1 160326Z 11005KT 21/18 A2983 RMK A01 T02080175  RH  081%=      5-min Rain = 0
KOD1 160327Z 10006KT 21/17 A2983 RMK A01 T02080172  RH  080%=      5-min Rain = 0
KOD1 160328Z 09007KT 21/17 A2983 RMK A01 T02090171  RH  079%=      5-min Rain = 0
KOD1 160329Z 08006KT 21/17 A2983 RMK A01 T02090173  RH  080%=      5-min Rain = 0
KOD1 160330Z 08007KT 21/17 A2983 RMK A01 T02080172  RH  080%=      5-min Rain = 0
KOD1 160331Z 07005KT 21/17 A2983 RMK A01 T02070170  RH  079%=      5-min Rain = 0
KOD1 160332Z 07005KT 21/17 A2983 RMK A01 T02080167  RH  077%=      5-min Rain = 0
KOD1 160333Z 07005KT 21/17 A2983 RMK A01 T02080172  RH  080%=      5-min Rain = 0
KOD1 160334Z 08007KT 21/17 A2983 RMK A01 T02050171  RH  081%=      5-min Rain = 0.01
KOD1 160335Z 09007KT 20/17 A2983 RMK A01 T02040167  RH  079%=      5-min Rain = 0
KOD1 160336Z 10007KT 21/17 A2983 RMK A01 T02050169  RH  080%=      5-min Rain = 0
KOD1 160337Z 12005KT 21/17 A2983 RMK A01 T02060171  RH  080%=      5-min Rain = 0
KOD1 160338Z 13005KT 21/17 A2983 RMK A01 T02060173  RH  081%=      5-min Rain = 0
KOD1 160339Z 11004KT 21/17 A2983 RMK A01 T02060172  RH  081%=      5-min Rain = 0
KOD1 160340Z 07004KT 21/17 A2984 RMK A01 T02060169  RH  079%=      5-min Rain = 0
KOD1 160341Z 04004KT 21/17 A2984 RMK A01 T02080170  RH  079%=      5-min Rain = 0
KOD1 160342Z 03006KT 21/16 A2984 RMK A01 T02110160  RH  073%=      5-min Rain = 0
KOD1 160343Z 03007KT 21/16 A2983 RMK A01 T02130162  RH  072%=      5-min Rain = 0
KOD1 160344Z 03009KT 21/17 A2983 RMK A01 T02110166  RH  076%=      5-min Rain = 0
KOD1 160345Z 03009KT 21/17 A2983 RMK A01 T02070169  RH  078%=      5-min Rain = 0
KOD1 160346Z 04008KT 21/17 A2983 RMK A01 T02050169  RH  079%=      5-min Rain = 0
KOD1 160347Z 03010KT 21/17 A2983 RMK A01 T02050168  RH  079%=      5-min Rain = 0.01
KOD1 160348Z 03012KT 21/17 A2983 RMK A01 T02060166  RH  078%=      5-min Rain = 0
KOD1 160349Z 02012KT 21/17 A2983 RMK A01 T02060165  RH  078%=      5-min Rain = 0
KOD1 160350Z 01013KT 21/17 A2983 RMK A01 T02060165  RH  077%=      5-min Rain = 0
KOD1 160351Z 01013KT 21/17 A2982 RMK A01 T02050167  RH  079%=      5-min Rain = 0
KOD1 160352Z 02013KT 20/17 A2982 RMK A01 T02040167  RH  079%=      5-min Rain = 0
KOD1 160353Z 01013KT 21/17 A2982 RMK A01 T02060165  RH  077%=      5-min Rain = 0.01
KOD1 160354Z 01014KT 21/17 A2982 RMK A01 T02070165  RH  077%=      5-min Rain = 0
KOD1 160355Z 01012KT 21/16 A2982 RMK A01 T02080164  RH  076%=      5-min Rain = 0
KOD1 160356Z 01012KT 21/17 A2982 RMK A01 T02080165  RH  076%=      5-min Rain = 0
KOD1 160357Z 01014KT 21/16 A2982 RMK A01 T02090163  RH  075%=      5-min Rain = 0
KOD1 160358Z 02014KT 21/16 A2982 RMK A01 T02090161  RH  074%=      5-min Rain = 0.01
KOD1 160359Z 02014KT 21/16 A2982 RMK A01 T02100159  RH  073%=      5-min Rain = 0
KOD1 160400Z 02014KT 21/16 A2982 RMK A01 T02110158  RH  072%=      5-min Rain = 0
KOD1 160401Z 03016KT 21/16 A2982 RMK A01 T02090160  RH  073%=      5-min Rain = 0
KOD1 160402Z 03014KT 21/16 A2982 RMK A01 T02070162  RH  075%=      5-min Rain = 0
KOD1 160403Z 03014KT 20/16 A2982 RMK A01 T02040164  RH  078%=      5-min Rain = 0
KOD1 160404Z 04012KT 20/17 A2981 RMK A01 T02030165  RH  079%=      5-min Rain = 0
KOD1 160405Z 04013KT 20/17 A2981 RMK A01 T02020168  RH  081%=      5-min Rain = 0
KOD1 160406Z 03013KT 20/17 A2981 RMK A01 T02010168  RH  081%=      5-min Rain = 0.01
KOD1 160407Z 04014KT 20/17 A298 RMK A01 T02010169  RH  081%=      5-min Rain = 0
KOD1 160408Z 04014KT 20/17 A298 RMK A01 T02010169  RH  082%=      5-min Rain = 0
KOD1 160409Z 03013KT 20/17 A298 RMK A01 T02010169  RH  082%=      5-min Rain = 0
KOD1 160410Z 03014KT 20/17 A298 RMK A01 T02010169  RH  082%=      5-min Rain = 0
KOD1 160411Z 03014KT 20/17 A298 RMK A01 T02010169  RH  082%=      5-min Rain = 0
KOD1 160412Z 04015KT 20/17 A298 RMK A01 T02010168  RH  082%=      5-min Rain = 0
KOD1 160413Z 04016KT 20/17 A2978 RMK A01 T02000170  RH  083%=      5-min Rain = 0
KOD1 160414Z 04019KT 20/17 A2977 RMK A01 T02000169  RH  082%=      5-min Rain = 0
KOD1 160415Z 04018KT 20/17 A2976 RMK A01 T02020167  RH  080%=      5-min Rain = 0
KOD1 160416Z 04018KT 20/17 A2975 RMK A01 T02020168  RH  081%=      5-min Rain = 0
KOD1 160417Z 05019KT 20/17 A2974 RMK A01 T02040165  RH  078%=      5-min Rain = 0
KOD1 160418Z 05017KT 21/16 A2974 RMK A01 T02060163  RH  076%=      5-min Rain = 0
KOD1 160419Z 05016KT 21/16 A2973 RMK A01 T02070163  RH  075%=      5-min Rain = 0
KOD1 160420Z 06016KT 21/16 A2973 RMK A01 T02080162  RH  075%=      5-min Rain = 0
KOD1 160421Z 10009KT 21/16 A2973 RMK A01 T02090162  RH  074%=      5-min Rain = 0
KOD1 160422Z 07012KT 21/16 A2973 RMK A01 T02110157  RH  071%=      5-min Rain = 0
KOD1 160423Z 08014KT 22/15 A2973 RMK A01 T02150154  RH  068%=      5-min Rain = 0
KOD1 160424Z 08014KT 22/15 A2973 RMK A01 T02180152  RH  066%=      5-min Rain = 0
KOD1 160425Z 08012KT 22/15 A2973 RMK A01 T02190149  RH  064%=      5-min Rain = 0
KOD1 160426Z 08012KT 22/15 A2974 RMK A01 T02220151  RH  064%=      5-min Rain = 0
KOD1 160427Z 08011KT 22/15 A2974 RMK A01 T02220152  RH  065%=      5-min Rain = 0
KOD1 160428Z 11012KT 22/16 A2975 RMK A01 T02210155  RH  066%=      5-min Rain = 0
KOD1 160429Z 10009KT 22/16 A2976 RMK A01 T02200157  RH  067%=      5-min Rain = 0
KOD1 160430Z 08009KT 22/16 A2976 RMK A01 T02170159  RH  070%=      5-min Rain = 0
KOD1 160431Z 08008KT 22/15 A2976 RMK A01 T02190151  RH  065%=      5-min Rain = 0
KOD1 160432Z 09006KT 22/15 A2976 RMK A01 T02230148  RH  062%=      5-min Rain = 0
KOD1 160433Z 11006KT 23/15 A2976 RMK A01 T02270151  RH  062%=      5-min Rain = 0
KOD1 160434Z 12005KT 23/16 A2976 RMK A01 T02260157  RH  065%=      5-min Rain = 0
KOD1 160435Z 11005KT 22/16 A2976 RMK A01 T02230160  RH  067%=      5-min Rain = 0
KOD1 160436Z 11006KT 22/16 A2977 RMK A01 T02220163  RH  070%=      5-min Rain = 0
KOD1 160437Z 12005KT 22/17 A2977 RMK A01 T02200166  RH  072%=      5-min Rain = 0
KOD1 160438Z 14004KT 22/17 A2977 RMK A01 T02190169  RH  073%=      5-min Rain = 0
KOD1 160439Z 14004KT 22/17 A2977 RMK A01 T02180168  RH  073%=      5-min Rain = 0
KOD1 160440Z 14004KT 22/17 A2978 RMK A01 T02180166  RH  072%=      5-min Rain = 0
KOD1 160441Z 12005KT 22/17 A2978 RMK A01 T02180167  RH  073%=      5-min Rain = 0
KOD1 160442Z 13006KT 22/16 A2978 RMK A01 T02190164  RH  071%=      5-min Rain = 0
KOD1 160443Z 15005KT 22/16 A2978 RMK A01 T02220160  RH  068%=      5-min Rain = 0
KOD1 160444Z 15006KT 22/17 A2978 RMK A01 T02240166  RH  070%=      5-min Rain = 0
KOD1 160445Z 16006KT 22/17 A2978 RMK A01 T02230172  RH  073%=      5-min Rain = 0
KOD1 160446Z 15006KT 22/17 A2978 RMK A01 T02220174  RH  075%=      5-min Rain = 0
KOD1 160447Z 16006KT 22/17 A2979 RMK A01 T02200171  RH  073%=      5-min Rain = 0
KOD1 160448Z 17007KT 22/17 A2978 RMK A01 T02210172  RH  074%=      5-min Rain = 0
KOD1 160449Z 16008KT 22/17 A2978 RMK A01 T02210174  RH  075%=      5-min Rain = 0
KOD1 160450Z 16008KT 22/17 A2979 RMK A01 T02200172  RH  074%=      5-min Rain = 0
KOD1 160451Z 16008KT 22/18 A2979 RMK A01 T02200175  RH  075%=      5-min Rain = 0
KOD1 160452Z 17012G17KT 22/18 A298 RMK A01 T02190176  RH  076%=      5-min Rain = 0
KOD1 160453Z 17018KT 22/17 A298 RMK A01 T02180172  RH  075%=      5-min Rain = 0
KOD1 160454Z 17019KT 22/17 A298 RMK A01 T02180167  RH  072%=      5-min Rain = 0
KOD1 160455Z 16020G26KT 22/17 A298 RMK A01 T02160165  RH  072%=      5-min Rain = 0
KOD1 160456Z 17013G18KT 22/17 A298 RMK A01 T02150166  RH  074%=      5-min Rain = 0
KOD1 160457Z 17012G19KT 21/17 A298 RMK A01 T02120167  RH  075%=      5-min Rain = 0
KOD1 160458Z 17019KT 21/16 A298 RMK A01 T02120163  RH  073%=      5-min Rain = 0
KOD1 160459Z 17014KT 21/16 A298 RMK A01 T02140164  RH  073%=      5-min Rain = 0

Page generated in 0.1453 seconds.